<?xml version="1.0" encoding="UTF-8" standalone="no" ?>
<gpx xmlns="http://www.topografix.com/GPX/1/1" xmlns:xsi="http://www.w3.org/2001/XMLSchema-instance" xsi:schemaLocation="http://www.topografix.com/GPX/1/1 http://www.topografix.com/GPX/1/1/gpx.xsd" version="1.1" creator="VisuGPX - https://www.visugpx.com">
  <metadata>
    <name>Transvésubienne - Edition 2009</name>
    <desc><![CDATA[Tracé du parcours 2009 de la Transvésubienne. Ce parcours renoue enfin avec une arrivée à Nice et le passage du Brec d'Utelle.]]></desc>
  </metadata>
  <trk>
    <name><![CDATA[Transvesubienne_2009]]></name>
    <trkseg>
      <trkpt lat="44.07069" lon="7.2231">
        <ele>1506.042481</ele>
        <time>2009-05-31T05:00:18Z</time>
      </trkpt>
      <trkpt lat="44.07035" lon="7.22468">
        <ele>1494.506592</ele>
        <time>2009-05-31T05:03:16Z</time>
      </trkpt>
      <trkpt lat="44.0704" lon="7.22545">
        <ele>1483.451416</ele>
        <time>2009-05-31T05:03:38Z</time>
      </trkpt>
      <trkpt lat="44.07006" lon="7.22589">
        <ele>1477.683594</ele>
        <time>2009-05-31T05:03:48Z</time>
      </trkpt>
      <trkpt lat="44.06947" lon="7.2276">
        <ele>1455.092773</ele>
        <time>2009-05-31T05:04:03Z</time>
      </trkpt>
      <trkpt lat="44.06903" lon="7.22837">
        <ele>1447.4021</ele>
        <time>2009-05-31T05:04:12Z</time>
      </trkpt>
      <trkpt lat="44.06797" lon="7.22859">
        <ele>1448.363281</ele>
        <time>2009-05-31T05:04:35Z</time>
      </trkpt>
      <trkpt lat="44.06637" lon="7.22783">
        <ele>1460.379883</ele>
        <time>2009-05-31T05:05:45Z</time>
      </trkpt>
      <trkpt lat="44.06609" lon="7.22751">
        <ele>1467.5896</ele>
        <time>2009-05-31T05:06:09Z</time>
      </trkpt>
      <trkpt lat="44.06565" lon="7.2274">
        <ele>1474.319092</ele>
        <time>2009-05-31T05:06:41Z</time>
      </trkpt>
      <trkpt lat="44.06508" lon="7.22639">
        <ele>1479.606201</ele>
        <time>2009-05-31T05:07:29Z</time>
      </trkpt>
      <trkpt lat="44.0654" lon="7.22643">
        <ele>1484.893799</ele>
        <time>2009-05-31T05:07:47Z</time>
      </trkpt>
      <trkpt lat="44.06406" lon="7.22414">
        <ele>1509.407227</ele>
        <time>2009-05-31T05:09:41Z</time>
      </trkpt>
      <trkpt lat="44.06408" lon="7.22366">
        <ele>1516.136475</ele>
        <time>2009-05-31T05:10:07Z</time>
      </trkpt>
      <trkpt lat="44.06387" lon="7.22327">
        <ele>1523.346436</ele>
        <time>2009-05-31T05:10:37Z</time>
      </trkpt>
      <trkpt lat="44.06333" lon="7.22065">
        <ele>1563.240967</ele>
        <time>2009-05-31T05:13:17Z</time>
      </trkpt>
      <trkpt lat="44.06201" lon="7.22253">
        <ele>1593.041748</ele>
        <time>2009-05-31T05:15:34Z</time>
      </trkpt>
      <trkpt lat="44.06136" lon="7.22282">
        <ele>1597.36792</ele>
        <time>2009-05-31T05:16:13Z</time>
      </trkpt>
      <trkpt lat="44.06095" lon="7.22323">
        <ele>1605.05835</ele>
        <time>2009-05-31T05:16:40Z</time>
      </trkpt>
      <trkpt lat="44.06057" lon="7.22475">
        <ele>1616.113525</ele>
        <time>2009-05-31T05:17:36Z</time>
      </trkpt>
      <trkpt lat="44.0604" lon="7.22826">
        <ele>1646.875732</ele>
        <time>2009-05-31T05:19:56Z</time>
      </trkpt>
      <trkpt lat="44.05922" lon="7.22668">
        <ele>1674.273193</ele>
        <time>2009-05-31T05:22:11Z</time>
      </trkpt>
      <trkpt lat="44.05851" lon="7.22527">
        <ele>1682.44458</ele>
        <time>2009-05-31T05:23:08Z</time>
      </trkpt>
      <trkpt lat="44.05785" lon="7.22509">
        <ele>1677.157471</ele>
        <time>2009-05-31T05:23:49Z</time>
      </trkpt>
      <trkpt lat="44.05745" lon="7.22467">
        <ele>1676.196045</ele>
        <time>2009-05-31T05:24:08Z</time>
      </trkpt>
      <trkpt lat="44.05619" lon="7.22386">
        <ele>1681.002686</ele>
        <time>2009-05-31T05:25:48Z</time>
      </trkpt>
      <trkpt lat="44.05577" lon="7.22341">
        <ele>1687.250977</ele>
        <time>2009-05-31T05:26:45Z</time>
      </trkpt>
      <trkpt lat="44.05577" lon="7.22295">
        <ele>1688.212402</ele>
        <time>2009-05-31T05:27:00Z</time>
      </trkpt>
      <trkpt lat="44.05701" lon="7.2198">
        <ele>1713.687256</ele>
        <time>2009-05-31T05:29:00Z</time>
      </trkpt>
      <trkpt lat="44.05712" lon="7.21904">
        <ele>1718.013184</ele>
        <time>2009-05-31T05:29:26Z</time>
      </trkpt>
      <trkpt lat="44.05693" lon="7.21871">
        <ele>1721.858398</ele>
        <time>2009-05-31T05:29:41Z</time>
      </trkpt>
      <trkpt lat="44.05683" lon="7.21803">
        <ele>1727.626465</ele>
        <time>2009-05-31T05:30:05Z</time>
      </trkpt>
      <trkpt lat="44.0565" lon="7.21769">
        <ele>1731.47168</ele>
        <time>2009-05-31T05:30:25Z</time>
      </trkpt>
      <trkpt lat="44.05635" lon="7.21668">
        <ele>1737.720215</ele>
        <time>2009-05-31T05:31:00Z</time>
      </trkpt>
      <trkpt lat="44.05567" lon="7.21618">
        <ele>1741.565674</ele>
        <time>2009-05-31T05:31:55Z</time>
      </trkpt>
      <trkpt lat="44.05421" lon="7.21598">
        <ele>1732.433106</ele>
        <time>2009-05-31T05:32:22Z</time>
      </trkpt>
      <trkpt lat="44.05355" lon="7.21554">
        <ele>1720.897217</ele>
        <time>2009-05-31T05:32:35Z</time>
      </trkpt>
      <trkpt lat="44.05319" lon="7.21474">
        <ele>1713.687256</ele>
        <time>2009-05-31T05:32:48Z</time>
      </trkpt>
      <trkpt lat="44.05293" lon="7.21301">
        <ele>1714.648682</ele>
        <time>2009-05-31T05:33:22Z</time>
      </trkpt>
      <trkpt lat="44.05216" lon="7.21184">
        <ele>1718.013184</ele>
        <time>2009-05-31T05:33:59Z</time>
      </trkpt>
      <trkpt lat="44.05179" lon="7.21058">
        <ele>1712.245361</ele>
        <time>2009-05-31T05:34:23Z</time>
      </trkpt>
      <trkpt lat="44.05191" lon="7.21024">
        <ele>1709.842041</ele>
        <time>2009-05-31T05:34:31Z</time>
      </trkpt>
      <trkpt lat="44.0522" lon="7.21009">
        <ele>1709.361572</ele>
        <time>2009-05-31T05:34:38Z</time>
      </trkpt>
      <trkpt lat="44.05223" lon="7.2098">
        <ele>1707.919434</ele>
        <time>2009-05-31T05:34:42Z</time>
      </trkpt>
      <trkpt lat="44.05204" lon="7.20934">
        <ele>1705.0354</ele>
        <time>2009-05-31T05:34:50Z</time>
      </trkpt>
      <trkpt lat="44.05224" lon="7.20895">
        <ele>1702.63208</ele>
        <time>2009-05-31T05:35:01Z</time>
      </trkpt>
      <trkpt lat="44.05278" lon="7.20876">
        <ele>1694.94165</ele>
        <time>2009-05-31T05:35:17Z</time>
      </trkpt>
      <trkpt lat="44.05281" lon="7.20742">
        <ele>1690.13501</ele>
        <time>2009-05-31T05:35:32Z</time>
      </trkpt>
      <trkpt lat="44.05319" lon="7.20634">
        <ele>1684.367188</ele>
        <time>2009-05-31T05:35:43Z</time>
      </trkpt>
      <trkpt lat="44.05308" lon="7.20605">
        <ele>1683.405762</ele>
        <time>2009-05-31T05:35:46Z</time>
      </trkpt>
      <trkpt lat="44.0516" lon="7.20438">
        <ele>1680.04126</ele>
        <time>2009-05-31T05:36:12Z</time>
      </trkpt>
      <trkpt lat="44.05089" lon="7.202">
        <ele>1674.753906</ele>
        <time>2009-05-31T05:36:50Z</time>
      </trkpt>
      <trkpt lat="44.05061" lon="7.20044">
        <ele>1672.831299</ele>
        <time>2009-05-31T05:37:07Z</time>
      </trkpt>
      <trkpt lat="44.05081" lon="7.1973">
        <ele>1663.218262</ele>
        <time>2009-05-31T05:37:38Z</time>
      </trkpt>
      <trkpt lat="44.05105" lon="7.19651">
        <ele>1661.295654</ele>
        <time>2009-05-31T05:37:47Z</time>
      </trkpt>
      <trkpt lat="44.05082" lon="7.19485">
        <ele>1655.046875</ele>
        <time>2009-05-31T05:38:09Z</time>
      </trkpt>
      <trkpt lat="44.05042" lon="7.19437">
        <ele>1664.660156</ele>
        <time>2009-05-31T05:38:49Z</time>
      </trkpt>
      <trkpt lat="44.04977" lon="7.19146">
        <ele>1703.112793</ele>
        <time>2009-05-31T05:41:23Z</time>
      </trkpt>
      <trkpt lat="44.04933" lon="7.19062">
        <ele>1717.052002</ele>
        <time>2009-05-31T05:42:10Z</time>
      </trkpt>
      <trkpt lat="44.04926" lon="7.18972">
        <ele>1727.626465</ele>
        <time>2009-05-31T05:42:57Z</time>
      </trkpt>
      <trkpt lat="44.04938" lon="7.18868">
        <ele>1740.604248</ele>
        <time>2009-05-31T05:43:43Z</time>
      </trkpt>
      <trkpt lat="44.04919" lon="7.18875">
        <ele>1742.046387</ele>
        <time>2009-05-31T05:43:59Z</time>
      </trkpt>
      <trkpt lat="44.04876" lon="7.1896">
        <ele>1753.582031</ele>
        <time>2009-05-31T05:44:55Z</time>
      </trkpt>
      <trkpt lat="44.04829" lon="7.19293">
        <ele>1801.167236</ele>
        <time>2009-05-31T05:49:22Z</time>
      </trkpt>
      <trkpt lat="44.0486" lon="7.19458">
        <ele>1820.393799</ele>
        <time>2009-05-31T05:51:19Z</time>
      </trkpt>
      <trkpt lat="44.04855" lon="7.19586">
        <ele>1832.410156</ele>
        <time>2009-05-31T05:52:54Z</time>
      </trkpt>
      <trkpt lat="44.04834" lon="7.19682">
        <ele>1838.178223</ele>
        <time>2009-05-31T05:54:59Z</time>
      </trkpt>
      <trkpt lat="44.04799" lon="7.19761">
        <ele>1847.79126</ele>
        <time>2009-05-31T05:56:04Z</time>
      </trkpt>
      <trkpt lat="44.04723" lon="7.19847">
        <ele>1870.863037</ele>
        <time>2009-05-31T05:58:13Z</time>
      </trkpt>
      <trkpt lat="44.04669" lon="7.20005">
        <ele>1882.87915</ele>
        <time>2009-05-31T06:00:18Z</time>
      </trkpt>
      <trkpt lat="44.04654" lon="7.20105">
        <ele>1886.244141</ele>
        <time>2009-05-31T06:01:07Z</time>
      </trkpt>
      <trkpt lat="44.04591" lon="7.20203">
        <ele>1896.818359</ele>
        <time>2009-05-31T06:02:14Z</time>
      </trkpt>
      <trkpt lat="44.04518" lon="7.20255">
        <ele>1893.93457</ele>
        <time>2009-05-31T06:03:07Z</time>
      </trkpt>
      <trkpt lat="44.04416" lon="7.20396">
        <ele>1899.702393</ele>
        <time>2009-05-31T06:03:54Z</time>
      </trkpt>
      <trkpt lat="44.04274" lon="7.2048">
        <ele>1912.199463</ele>
        <time>2009-05-31T06:05:06Z</time>
      </trkpt>
      <trkpt lat="44.04202" lon="7.20471">
        <ele>1917.006348</ele>
        <time>2009-05-31T06:05:45Z</time>
      </trkpt>
      <trkpt lat="44.0409" lon="7.20485">
        <ele>1926.619385</ele>
        <time>2009-05-31T06:06:57Z</time>
      </trkpt>
      <trkpt lat="44.04062" lon="7.20457">
        <ele>1930.4646</ele>
        <time>2009-05-31T06:07:24Z</time>
      </trkpt>
      <trkpt lat="44.03952" lon="7.20414">
        <ele>1959.304199</ele>
        <time>2009-05-31T06:09:40Z</time>
      </trkpt>
      <trkpt lat="44.03933" lon="7.2042">
        <ele>1962.668701</ele>
        <time>2009-05-31T06:10:04Z</time>
      </trkpt>
      <trkpt lat="44.03924" lon="7.20506">
        <ele>1963.149414</ele>
        <time>2009-05-31T06:10:34Z</time>
      </trkpt>
      <trkpt lat="44.03879" lon="7.20591">
        <ele>1960.746094</ele>
        <time>2009-05-31T06:10:51Z</time>
      </trkpt>
      <trkpt lat="44.03822" lon="7.20759">
        <ele>1975.646484</ele>
        <time>2009-05-31T06:12:03Z</time>
      </trkpt>
      <trkpt lat="44.03759" lon="7.20873">
        <ele>1980.934082</ele>
        <time>2009-05-31T06:12:50Z</time>
      </trkpt>
      <trkpt lat="44.03733" lon="7.20892">
        <ele>1985.740479</ele>
        <time>2009-05-31T06:13:07Z</time>
      </trkpt>
      <trkpt lat="44.03708" lon="7.20885">
        <ele>1986.70166</ele>
        <time>2009-05-31T06:13:19Z</time>
      </trkpt>
      <trkpt lat="44.03618" lon="7.2092">
        <ele>1981.414551</ele>
        <time>2009-05-31T06:13:43Z</time>
      </trkpt>
      <trkpt lat="44.03603" lon="7.20966">
        <ele>1983.337158</ele>
        <time>2009-05-31T06:13:59Z</time>
      </trkpt>
      <trkpt lat="44.03576" lon="7.20997">
        <ele>1987.182373</ele>
        <time>2009-05-31T06:14:16Z</time>
      </trkpt>
      <trkpt lat="44.03353" lon="7.21117">
        <ele>2011.215332</ele>
        <time>2009-05-31T06:17:18Z</time>
      </trkpt>
      <trkpt lat="44.03303" lon="7.21093">
        <ele>2013.138184</ele>
        <time>2009-05-31T06:17:40Z</time>
      </trkpt>
      <trkpt lat="44.03263" lon="7.21113">
        <ele>2011.696045</ele>
        <time>2009-05-31T06:17:52Z</time>
      </trkpt>
      <trkpt lat="44.03208" lon="7.21204">
        <ele>2005.927979</ele>
        <time>2009-05-31T06:18:12Z</time>
      </trkpt>
      <trkpt lat="44.0321" lon="7.21486">
        <ele>1970.840088</ele>
        <time>2009-05-31T06:18:52Z</time>
      </trkpt>
      <trkpt lat="44.03178" lon="7.21547">
        <ele>1966.033447</ele>
        <time>2009-05-31T06:19:05Z</time>
      </trkpt>
      <trkpt lat="44.03086" lon="7.21635">
        <ele>1951.61377</ele>
        <time>2009-05-31T06:19:46Z</time>
      </trkpt>
      <trkpt lat="44.03038" lon="7.21651">
        <ele>1943.923096</ele>
        <time>2009-05-31T06:19:56Z</time>
      </trkpt>
      <trkpt lat="44.02999" lon="7.21719">
        <ele>1944.884277</ele>
        <time>2009-05-31T06:20:31Z</time>
      </trkpt>
      <trkpt lat="44.02983" lon="7.21715">
        <ele>1947.768311</ele>
        <time>2009-05-31T06:20:48Z</time>
      </trkpt>
      <trkpt lat="44.02952" lon="7.21743">
        <ele>1943.923096</ele>
        <time>2009-05-31T06:21:11Z</time>
      </trkpt>
      <trkpt lat="44.02899" lon="7.21754">
        <ele>1944.884277</ele>
        <time>2009-05-31T06:21:41Z</time>
      </trkpt>
      <trkpt lat="44.02889" lon="7.21811">
        <ele>1943.442383</ele>
        <time>2009-05-31T06:22:04Z</time>
      </trkpt>
      <trkpt lat="44.02816" lon="7.21875">
        <ele>1936.713135</ele>
        <time>2009-05-31T06:22:25Z</time>
      </trkpt>
      <trkpt lat="44.02784" lon="7.21953">
        <ele>1932.387451</ele>
        <time>2009-05-31T06:22:39Z</time>
      </trkpt>
      <trkpt lat="44.02703" lon="7.22058">
        <ele>1923.735352</ele>
        <time>2009-05-31T06:22:56Z</time>
      </trkpt>
      <trkpt lat="44.02679" lon="7.2216">
        <ele>1921.332031</ele>
        <time>2009-05-31T06:23:08Z</time>
      </trkpt>
      <trkpt lat="44.02679" lon="7.22247">
        <ele>1919.409668</ele>
        <time>2009-05-31T06:23:18Z</time>
      </trkpt>
      <trkpt lat="44.02647" lon="7.22312">
        <ele>1916.044922</ele>
        <time>2009-05-31T06:23:30Z</time>
      </trkpt>
      <trkpt lat="44.02537" lon="7.22392">
        <ele>1930.4646</ele>
        <time>2009-05-31T06:24:35Z</time>
      </trkpt>
      <trkpt lat="44.02504" lon="7.22446">
        <ele>1936.713135</ele>
        <time>2009-05-31T06:25:20Z</time>
      </trkpt>
      <trkpt lat="44.02496" lon="7.22572">
        <ele>1946.326416</ele>
        <time>2009-05-31T06:26:29Z</time>
      </trkpt>
      <trkpt lat="44.02461" lon="7.22705">
        <ele>1954.978271</ele>
        <time>2009-05-31T06:27:19Z</time>
      </trkpt>
      <trkpt lat="44.024" lon="7.22801">
        <ele>1951.61377</ele>
        <time>2009-05-31T06:27:38Z</time>
      </trkpt>
      <trkpt lat="44.02381" lon="7.22877">
        <ele>1954.978271</ele>
        <time>2009-05-31T06:27:59Z</time>
      </trkpt>
      <trkpt lat="44.02307" lon="7.22958">
        <ele>1955.939453</ele>
        <time>2009-05-31T06:28:33Z</time>
      </trkpt>
      <trkpt lat="44.02273" lon="7.23043">
        <ele>1954.01709</ele>
        <time>2009-05-31T06:28:45Z</time>
      </trkpt>
      <trkpt lat="44.02198" lon="7.23092">
        <ele>1948.729736</ele>
        <time>2009-05-31T06:28:59Z</time>
      </trkpt>
      <trkpt lat="44.02109" lon="7.23116">
        <ele>1946.806885</ele>
        <time>2009-05-31T06:29:17Z</time>
      </trkpt>
      <trkpt lat="44.01993" lon="7.23177">
        <ele>1934.790771</ele>
        <time>2009-05-31T06:29:43Z</time>
      </trkpt>
      <trkpt lat="44.01877" lon="7.23092">
        <ele>1900.18335</ele>
        <time>2009-05-31T06:30:12Z</time>
      </trkpt>
      <trkpt lat="44.01826" lon="7.23074">
        <ele>1891.53125</ele>
        <time>2009-05-31T06:30:25Z</time>
      </trkpt>
      <trkpt lat="44.01784" lon="7.23011">
        <ele>1877.592041</ele>
        <time>2009-05-31T06:30:40Z</time>
      </trkpt>
      <trkpt lat="44.0173" lon="7.22996">
        <ele>1864.614258</ele>
        <time>2009-05-31T06:30:57Z</time>
      </trkpt>
      <trkpt lat="44.01747" lon="7.22977">
        <ele>1858.846436</ele>
        <time>2009-05-31T06:31:23Z</time>
      </trkpt>
      <trkpt lat="44.01694" lon="7.22976">
        <ele>1846.829834</ele>
        <time>2009-05-31T06:31:44Z</time>
      </trkpt>
      <trkpt lat="44.01663" lon="7.22935">
        <ele>1844.907227</ele>
        <time>2009-05-31T06:32:18Z</time>
      </trkpt>
      <trkpt lat="44.01645" lon="7.22854">
        <ele>1834.332764</ele>
        <time>2009-05-31T06:32:37Z</time>
      </trkpt>
      <trkpt lat="44.01588" lon="7.22799">
        <ele>1822.316406</ele>
        <time>2009-05-31T06:33:07Z</time>
      </trkpt>
      <trkpt lat="44.01594" lon="7.22769">
        <ele>1817.990234</ele>
        <time>2009-05-31T06:33:19Z</time>
      </trkpt>
      <trkpt lat="44.01576" lon="7.22654">
        <ele>1801.647949</ele>
        <time>2009-05-31T06:33:41Z</time>
      </trkpt>
      <trkpt lat="44.01517" lon="7.22611">
        <ele>1791.073486</ele>
        <time>2009-05-31T06:33:54Z</time>
      </trkpt>
      <trkpt lat="44.01399" lon="7.22583">
        <ele>1768.001709</ele>
        <time>2009-05-31T06:34:20Z</time>
      </trkpt>
      <trkpt lat="44.0134" lon="7.22606">
        <ele>1762.7146</ele>
        <time>2009-05-31T06:34:39Z</time>
      </trkpt>
      <trkpt lat="44.01309" lon="7.22589">
        <ele>1757.908203</ele>
        <time>2009-05-31T06:35:28Z</time>
      </trkpt>
      <trkpt lat="44.01298" lon="7.2254">
        <ele>1755.504639</ele>
        <time>2009-05-31T06:35:41Z</time>
      </trkpt>
      <trkpt lat="44.0127" lon="7.22505">
        <ele>1753.582031</ele>
        <time>2009-05-31T06:35:50Z</time>
      </trkpt>
      <trkpt lat="44.01228" lon="7.22504">
        <ele>1748.775391</ele>
        <time>2009-05-31T06:35:59Z</time>
      </trkpt>
      <trkpt lat="44.01177" lon="7.22428">
        <ele>1737.239502</ele>
        <time>2009-05-31T06:36:18Z</time>
      </trkpt>
      <trkpt lat="44.01146" lon="7.22416">
        <ele>1734.836426</ele>
        <time>2009-05-31T06:36:33Z</time>
      </trkpt>
      <trkpt lat="44.01155" lon="7.22357">
        <ele>1728.107178</ele>
        <time>2009-05-31T06:36:50Z</time>
      </trkpt>
      <trkpt lat="44.01109" lon="7.2228">
        <ele>1721.858398</ele>
        <time>2009-05-31T06:37:07Z</time>
      </trkpt>
      <trkpt lat="44.0111" lon="7.2225">
        <ele>1720.897217</ele>
        <time>2009-05-31T06:37:13Z</time>
      </trkpt>
      <trkpt lat="44.01061" lon="7.22122">
        <ele>1713.206787</ele>
        <time>2009-05-31T06:37:32Z</time>
      </trkpt>
      <trkpt lat="44.00984" lon="7.22187">
        <ele>1712.726074</ele>
        <time>2009-05-31T06:37:55Z</time>
      </trkpt>
      <trkpt lat="44.00757" lon="7.22302">
        <ele>1720.897217</ele>
        <time>2009-05-31T06:38:45Z</time>
      </trkpt>
      <trkpt lat="44.00689" lon="7.22259">
        <ele>1722.339111</ele>
        <time>2009-05-31T06:39:04Z</time>
      </trkpt>
      <trkpt lat="44.00669" lon="7.22267">
        <ele>1724.261963</ele>
        <time>2009-05-31T06:39:09Z</time>
      </trkpt>
      <trkpt lat="44.0057" lon="7.22227">
        <ele>1728.587891</ele>
        <time>2009-05-31T06:39:35Z</time>
      </trkpt>
      <trkpt lat="44.00535" lon="7.22162">
        <ele>1730.991211</ele>
        <time>2009-05-31T06:39:51Z</time>
      </trkpt>
      <trkpt lat="44.00491" lon="7.22129">
        <ele>1730.991211</ele>
        <time>2009-05-31T06:40:03Z</time>
      </trkpt>
      <trkpt lat="44.00463" lon="7.2208">
        <ele>1733.394287</ele>
        <time>2009-05-31T06:40:14Z</time>
      </trkpt>
      <trkpt lat="44.00418" lon="7.2205">
        <ele>1735.316895</ele>
        <time>2009-05-31T06:40:27Z</time>
      </trkpt>
      <trkpt lat="44.00393" lon="7.22001">
        <ele>1735.797607</ele>
        <time>2009-05-31T06:40:38Z</time>
      </trkpt>
      <trkpt lat="44.00334" lon="7.22011">
        <ele>1737.720215</ele>
        <time>2009-05-31T06:40:54Z</time>
      </trkpt>
      <trkpt lat="44.00294" lon="7.21989">
        <ele>1723.300537</ele>
        <time>2009-05-31T06:41:10Z</time>
      </trkpt>
      <trkpt lat="44.00307" lon="7.21939">
        <ele>1711.764893</ele>
        <time>2009-05-31T06:41:23Z</time>
      </trkpt>
      <trkpt lat="44.00297" lon="7.21925">
        <ele>1706.958008</ele>
        <time>2009-05-31T06:41:31Z</time>
      </trkpt>
      <trkpt lat="44.00244" lon="7.2193">
        <ele>1692.057861</ele>
        <time>2009-05-31T06:41:53Z</time>
      </trkpt>
      <trkpt lat="44.00265" lon="7.21862">
        <ele>1679.079834</ele>
        <time>2009-05-31T06:42:17Z</time>
      </trkpt>
      <trkpt lat="44.00248" lon="7.21817">
        <ele>1663.218262</ele>
        <time>2009-05-31T06:42:33Z</time>
      </trkpt>
      <trkpt lat="44.00255" lon="7.21785">
        <ele>1656.48877</ele>
        <time>2009-05-31T06:42:42Z</time>
      </trkpt>
      <trkpt lat="44.00236" lon="7.21771">
        <ele>1651.20166</ele>
        <time>2009-05-31T06:42:49Z</time>
      </trkpt>
      <trkpt lat="44.00218" lon="7.21781">
        <ele>1654.085693</ele>
        <time>2009-05-31T06:42:55Z</time>
      </trkpt>
      <trkpt lat="44.00214" lon="7.21836">
        <ele>1656.969482</ele>
        <time>2009-05-31T06:43:12Z</time>
      </trkpt>
      <trkpt lat="44.00189" lon="7.21892">
        <ele>1665.621582</ele>
        <time>2009-05-31T06:43:49Z</time>
      </trkpt>
      <trkpt lat="44.0016" lon="7.22147">
        <ele>1699.748291</ele>
        <time>2009-05-31T06:46:37Z</time>
      </trkpt>
      <trkpt lat="44.00174" lon="7.22199">
        <ele>1703.593506</ele>
        <time>2009-05-31T06:47:16Z</time>
      </trkpt>
      <trkpt lat="44.00184" lon="7.22175">
        <ele>1709.361572</ele>
        <time>2009-05-31T06:47:38Z</time>
      </trkpt>
      <trkpt lat="44.00191" lon="7.22204">
        <ele>1712.726074</ele>
        <time>2009-05-31T06:48:02Z</time>
      </trkpt>
      <trkpt lat="44.00154" lon="7.22324">
        <ele>1721.377686</ele>
        <time>2009-05-31T06:49:09Z</time>
      </trkpt>
      <trkpt lat="44.0016" lon="7.22419">
        <ele>1729.549072</ele>
        <time>2009-05-31T06:49:50Z</time>
      </trkpt>
      <trkpt lat="44.00143" lon="7.22442">
        <ele>1732.433106</ele>
        <time>2009-05-31T06:50:14Z</time>
      </trkpt>
      <trkpt lat="44.0015" lon="7.22474">
        <ele>1737.720215</ele>
        <time>2009-05-31T06:50:34Z</time>
      </trkpt>
      <trkpt lat="44.00135" lon="7.22492">
        <ele>1738.200928</ele>
        <time>2009-05-31T06:50:50Z</time>
      </trkpt>
      <trkpt lat="44.00132" lon="7.22613">
        <ele>1739.642822</ele>
        <time>2009-05-31T06:51:29Z</time>
      </trkpt>
      <trkpt lat="44.0005" lon="7.22785">
        <ele>1736.758789</ele>
        <time>2009-05-31T06:52:00Z</time>
      </trkpt>
      <trkpt lat="44.00065" lon="7.22925">
        <ele>1739.642822</ele>
        <time>2009-05-31T06:52:26Z</time>
      </trkpt>
      <trkpt lat="43.99889" lon="7.23131">
        <ele>1729.068359</ele>
        <time>2009-05-31T06:53:07Z</time>
      </trkpt>
      <trkpt lat="43.99843" lon="7.23165">
        <ele>1724.261963</ele>
        <time>2009-05-31T06:53:13Z</time>
      </trkpt>
      <trkpt lat="43.99834" lon="7.23194">
        <ele>1722.819824</ele>
        <time>2009-05-31T06:53:16Z</time>
      </trkpt>
      <trkpt lat="43.99896" lon="7.23456">
        <ele>1701.670898</ele>
        <time>2009-05-31T06:53:37Z</time>
      </trkpt>
      <trkpt lat="43.99865" lon="7.23597">
        <ele>1695.903076</ele>
        <time>2009-05-31T06:53:49Z</time>
      </trkpt>
      <trkpt lat="43.9985" lon="7.23604">
        <ele>1693.019043</ele>
        <time>2009-05-31T06:56:53Z</time>
      </trkpt>
      <trkpt lat="43.99843" lon="7.23565">
        <ele>1685.809082</ele>
        <time>2009-05-31T06:57:07Z</time>
      </trkpt>
      <trkpt lat="43.99793" lon="7.23576">
        <ele>1673.792481</ele>
        <time>2009-05-31T06:57:29Z</time>
      </trkpt>
      <trkpt lat="43.99798" lon="7.23543">
        <ele>1668.024658</ele>
        <time>2009-05-31T06:57:39Z</time>
      </trkpt>
      <trkpt lat="43.99765" lon="7.23548">
        <ele>1660.814941</ele>
        <time>2009-05-31T06:57:51Z</time>
      </trkpt>
      <trkpt lat="43.99741" lon="7.23518">
        <ele>1648.79834</ele>
        <time>2009-05-31T06:58:08Z</time>
      </trkpt>
      <trkpt lat="43.9974" lon="7.23494">
        <ele>1643.510986</ele>
        <time>2009-05-31T06:58:16Z</time>
      </trkpt>
      <trkpt lat="43.99721" lon="7.235">
        <ele>1639.185059</ele>
        <time>2009-05-31T06:58:24Z</time>
      </trkpt>
      <trkpt lat="43.99722" lon="7.23481">
        <ele>1635.339844</ele>
        <time>2009-05-31T06:58:29Z</time>
      </trkpt>
      <trkpt lat="43.99688" lon="7.23483">
        <ele>1631.01416</ele>
        <time>2009-05-31T06:58:40Z</time>
      </trkpt>
      <trkpt lat="43.99684" lon="7.23465">
        <ele>1620.920166</ele>
        <time>2009-05-31T06:59:00Z</time>
      </trkpt>
      <trkpt lat="43.99648" lon="7.23479">
        <ele>1615.152344</ele>
        <time>2009-05-31T06:59:12Z</time>
      </trkpt>
      <trkpt lat="43.99652" lon="7.23462">
        <ele>1612.749023</ele>
        <time>2009-05-31T06:59:16Z</time>
      </trkpt>
      <trkpt lat="43.99639" lon="7.23459">
        <ele>1608.422852</ele>
        <time>2009-05-31T06:59:23Z</time>
      </trkpt>
      <trkpt lat="43.99634" lon="7.23427">
        <ele>1602.174316</ele>
        <time>2009-05-31T06:59:32Z</time>
      </trkpt>
      <trkpt lat="43.99554" lon="7.23428">
        <ele>1587.754639</ele>
        <time>2009-05-31T06:59:48Z</time>
      </trkpt>
      <trkpt lat="43.99557" lon="7.23389">
        <ele>1583.428711</ele>
        <time>2009-05-31T06:59:54Z</time>
      </trkpt>
      <trkpt lat="43.99381" lon="7.23275">
        <ele>1547.859863</ele>
        <time>2009-05-31T07:00:31Z</time>
      </trkpt>
      <trkpt lat="43.99298" lon="7.23188">
        <ele>1526.710938</ele>
        <time>2009-05-31T07:00:51Z</time>
      </trkpt>
      <trkpt lat="43.99229" lon="7.23178">
        <ele>1507.003906</ele>
        <time>2009-05-31T07:01:11Z</time>
      </trkpt>
      <trkpt lat="43.99192" lon="7.23155">
        <ele>1502.677979</ele>
        <time>2009-05-31T07:01:18Z</time>
      </trkpt>
      <trkpt lat="43.99056" lon="7.2319">
        <ele>1483.451416</ele>
        <time>2009-05-31T07:01:50Z</time>
      </trkpt>
      <trkpt lat="43.99037" lon="7.23179">
        <ele>1480.086914</ele>
        <time>2009-05-31T07:01:56Z</time>
      </trkpt>
      <trkpt lat="43.99039" lon="7.23158">
        <ele>1474.319092</ele>
        <time>2009-05-31T07:02:06Z</time>
      </trkpt>
      <trkpt lat="43.9901" lon="7.23161">
        <ele>1465.186523</ele>
        <time>2009-05-31T07:02:20Z</time>
      </trkpt>
      <trkpt lat="43.99013" lon="7.23145">
        <ele>1460.379883</ele>
        <time>2009-05-31T07:02:27Z</time>
      </trkpt>
      <trkpt lat="43.98957" lon="7.23137">
        <ele>1447.882813</ele>
        <time>2009-05-31T07:02:44Z</time>
      </trkpt>
      <trkpt lat="43.98913" lon="7.23164">
        <ele>1434.905029</ele>
        <time>2009-05-31T07:03:15Z</time>
      </trkpt>
      <trkpt lat="43.98834" lon="7.23154">
        <ele>1418.5625</ele>
        <time>2009-05-31T07:03:42Z</time>
      </trkpt>
      <trkpt lat="43.98806" lon="7.23173">
        <ele>1413.275391</ele>
        <time>2009-05-31T07:03:54Z</time>
      </trkpt>
      <trkpt lat="43.98788" lon="7.23136">
        <ele>1397.413574</ele>
        <time>2009-05-31T07:04:49Z</time>
      </trkpt>
      <trkpt lat="43.98693" lon="7.23205">
        <ele>1376.264648</ele>
        <time>2009-05-31T07:05:38Z</time>
      </trkpt>
      <trkpt lat="43.98581" lon="7.23243">
        <ele>1369.054688</ele>
        <time>2009-05-31T07:06:13Z</time>
      </trkpt>
      <trkpt lat="43.98529" lon="7.23325">
        <ele>1368.573975</ele>
        <time>2009-05-31T07:06:31Z</time>
      </trkpt>
      <trkpt lat="43.98478" lon="7.2337">
        <ele>1370.496582</ele>
        <time>2009-05-31T07:06:46Z</time>
      </trkpt>
      <trkpt lat="43.98426" lon="7.2346">
        <ele>1383.955078</ele>
        <time>2009-05-31T07:07:42Z</time>
      </trkpt>
      <trkpt lat="43.98207" lon="7.23612">
        <ele>1385.877686</ele>
        <time>2009-05-31T07:08:42Z</time>
      </trkpt>
      <trkpt lat="43.98172" lon="7.23604">
        <ele>1389.242432</ele>
        <time>2009-05-31T07:08:54Z</time>
      </trkpt>
      <trkpt lat="43.98159" lon="7.23579">
        <ele>1389.723145</ele>
        <time>2009-05-31T07:09:01Z</time>
      </trkpt>
      <trkpt lat="43.98086" lon="7.2354">
        <ele>1393.568359</ele>
        <time>2009-05-31T07:09:25Z</time>
      </trkpt>
      <trkpt lat="43.98059" lon="7.23499">
        <ele>1393.087646</ele>
        <time>2009-05-31T07:09:36Z</time>
      </trkpt>
      <trkpt lat="43.97939" lon="7.23421">
        <ele>1398.855469</ele>
        <time>2009-05-31T07:10:22Z</time>
      </trkpt>
      <trkpt lat="43.97878" lon="7.23433">
        <ele>1401.739502</ele>
        <time>2009-05-31T07:10:43Z</time>
      </trkpt>
      <trkpt lat="43.97738" lon="7.2353">
        <ele>1404.623535</ele>
        <time>2009-05-31T07:11:32Z</time>
      </trkpt>
      <trkpt lat="43.97709" lon="7.23611">
        <ele>1416.15918</ele>
        <time>2009-05-31T07:12:05Z</time>
      </trkpt>
      <trkpt lat="43.9765" lon="7.23678">
        <ele>1428.175781</ele>
        <time>2009-05-31T07:12:54Z</time>
      </trkpt>
      <trkpt lat="43.97592" lon="7.23656">
        <ele>1428.656494</ele>
        <time>2009-05-31T07:13:21Z</time>
      </trkpt>
      <trkpt lat="43.97404" lon="7.23721">
        <ele>1419.523926</ele>
        <time>2009-05-31T07:14:08Z</time>
      </trkpt>
      <trkpt lat="43.97357" lon="7.23722">
        <ele>1418.5625</ele>
        <time>2009-05-31T07:14:20Z</time>
      </trkpt>
      <trkpt lat="43.97305" lon="7.23754">
        <ele>1425.772461</ele>
        <time>2009-05-31T07:14:53Z</time>
      </trkpt>
      <trkpt lat="43.97266" lon="7.23853">
        <ele>1417.601074</ele>
        <time>2009-05-31T07:15:10Z</time>
      </trkpt>
      <trkpt lat="43.97188" lon="7.23913">
        <ele>1415.197998</ele>
        <time>2009-05-31T07:15:27Z</time>
      </trkpt>
      <trkpt lat="43.97112" lon="7.23937">
        <ele>1416.639893</ele>
        <time>2009-05-31T07:15:51Z</time>
      </trkpt>
      <trkpt lat="43.97054" lon="7.23834">
        <ele>1411.833496</ele>
        <time>2009-05-31T07:16:34Z</time>
      </trkpt>
      <trkpt lat="43.97006" lon="7.23818">
        <ele>1408.46875</ele>
        <time>2009-05-31T07:16:52Z</time>
      </trkpt>
      <trkpt lat="43.96933" lon="7.23754">
        <ele>1411.833496</ele>
        <time>2009-05-31T07:17:38Z</time>
      </trkpt>
      <trkpt lat="43.96568" lon="7.23783">
        <ele>1429.617676</ele>
        <time>2009-05-31T07:19:58Z</time>
      </trkpt>
      <trkpt lat="43.96303" lon="7.2394">
        <ele>1418.081787</ele>
        <time>2009-05-31T07:21:14Z</time>
      </trkpt>
      <trkpt lat="43.96189" lon="7.24055">
        <ele>1408.949463</ele>
        <time>2009-05-31T07:21:37Z</time>
      </trkpt>
      <trkpt lat="43.96105" lon="7.24102">
        <ele>1407.026856</ele>
        <time>2009-05-31T07:21:55Z</time>
      </trkpt>
      <trkpt lat="43.96031" lon="7.24216">
        <ele>1407.026856</ele>
        <time>2009-05-31T07:22:20Z</time>
      </trkpt>
      <trkpt lat="43.95975" lon="7.2427">
        <ele>1406.546143</ele>
        <time>2009-05-31T07:22:35Z</time>
      </trkpt>
      <trkpt lat="43.95841" lon="7.24316">
        <ele>1415.678711</ele>
        <time>2009-05-31T07:23:32Z</time>
      </trkpt>
      <trkpt lat="43.95669" lon="7.24269">
        <ele>1425.772461</ele>
        <time>2009-05-31T07:24:46Z</time>
      </trkpt>
      <trkpt lat="43.95605" lon="7.24212">
        <ele>1435.385498</ele>
        <time>2009-05-31T07:25:38Z</time>
      </trkpt>
      <trkpt lat="43.95513" lon="7.24184">
        <ele>1445.960205</ele>
        <time>2009-05-31T07:26:35Z</time>
      </trkpt>
      <trkpt lat="43.95459" lon="7.24189">
        <ele>1460.379883</ele>
        <time>2009-05-31T07:28:09Z</time>
      </trkpt>
      <trkpt lat="43.954" lon="7.24262">
        <ele>1488.739014</ele>
        <time>2009-05-31T07:30:36Z</time>
      </trkpt>
      <trkpt lat="43.95278" lon="7.2427">
        <ele>1498.351807</ele>
        <time>2009-05-31T07:32:12Z</time>
      </trkpt>
      <trkpt lat="43.95246" lon="7.24301">
        <ele>1497.390625</ele>
        <time>2009-05-31T07:32:41Z</time>
      </trkpt>
      <trkpt lat="43.95191" lon="7.24292">
        <ele>1506.042481</ele>
        <time>2009-05-31T07:33:42Z</time>
      </trkpt>
      <trkpt lat="43.95161" lon="7.24349">
        <ele>1535.843506</ele>
        <time>2009-05-31T07:36:50Z</time>
      </trkpt>
      <trkpt lat="43.95132" lon="7.24369">
        <ele>1539.688721</ele>
        <time>2009-05-31T07:37:33Z</time>
      </trkpt>
      <trkpt lat="43.95079" lon="7.24362">
        <ele>1545.456543</ele>
        <time>2009-05-31T07:38:41Z</time>
      </trkpt>
      <trkpt lat="43.95052" lon="7.24309">
        <ele>1549.302002</ele>
        <time>2009-05-31T07:39:53Z</time>
      </trkpt>
      <trkpt lat="43.94981" lon="7.24361">
        <ele>1528.633545</ele>
        <time>2009-05-31T07:40:33Z</time>
      </trkpt>
      <trkpt lat="43.94933" lon="7.2434">
        <ele>1525.749512</ele>
        <time>2009-05-31T07:40:55Z</time>
      </trkpt>
      <trkpt lat="43.94895" lon="7.24393">
        <ele>1515.175049</ele>
        <time>2009-05-31T07:41:11Z</time>
      </trkpt>
      <trkpt lat="43.94874" lon="7.24399">
        <ele>1506.523193</ele>
        <time>2009-05-31T07:41:25Z</time>
      </trkpt>
      <trkpt lat="43.9489" lon="7.24338">
        <ele>1494.026123</ele>
        <time>2009-05-31T07:42:11Z</time>
      </trkpt>
      <trkpt lat="43.94884" lon="7.2435">
        <ele>1492.103516</ele>
        <time>2009-05-31T07:42:19Z</time>
      </trkpt>
      <trkpt lat="43.94883" lon="7.24336">
        <ele>1487.777588</ele>
        <time>2009-05-31T07:42:28Z</time>
      </trkpt>
      <trkpt lat="43.94788" lon="7.24423">
        <ele>1467.5896</ele>
        <time>2009-05-31T07:43:23Z</time>
      </trkpt>
      <trkpt lat="43.94796" lon="7.24394">
        <ele>1460.379883</ele>
        <time>2009-05-31T07:43:38Z</time>
      </trkpt>
      <trkpt lat="43.94774" lon="7.24399">
        <ele>1455.573486</ele>
        <time>2009-05-31T07:43:50Z</time>
      </trkpt>
      <trkpt lat="43.94782" lon="7.24367">
        <ele>1444.998779</ele>
        <time>2009-05-31T07:44:00Z</time>
      </trkpt>
      <trkpt lat="43.94757" lon="7.24372">
        <ele>1435.866211</ele>
        <time>2009-05-31T07:44:11Z</time>
      </trkpt>
      <trkpt lat="43.94757" lon="7.24353">
        <ele>1431.540283</ele>
        <time>2009-05-31T07:44:23Z</time>
      </trkpt>
      <trkpt lat="43.94694" lon="7.24335">
        <ele>1403.181396</ele>
        <time>2009-05-31T07:45:20Z</time>
      </trkpt>
      <trkpt lat="43.94695" lon="7.24318">
        <ele>1399.336182</ele>
        <time>2009-05-31T07:45:27Z</time>
      </trkpt>
      <trkpt lat="43.94675" lon="7.24315">
        <ele>1392.126465</ele>
        <time>2009-05-31T07:45:41Z</time>
      </trkpt>
      <trkpt lat="43.94677" lon="7.24298">
        <ele>1385.877686</ele>
        <time>2009-05-31T07:45:57Z</time>
      </trkpt>
      <trkpt lat="43.94634" lon="7.2426">
        <ele>1378.667969</ele>
        <time>2009-05-31T07:46:13Z</time>
      </trkpt>
      <trkpt lat="43.9456" lon="7.24107">
        <ele>1373.861328</ele>
        <time>2009-05-31T07:46:46Z</time>
      </trkpt>
      <trkpt lat="43.94558" lon="7.24018">
        <ele>1371.938477</ele>
        <time>2009-05-31T07:47:09Z</time>
      </trkpt>
      <trkpt lat="43.94544" lon="7.23974">
        <ele>1374.342041</ele>
        <time>2009-05-31T07:47:27Z</time>
      </trkpt>
      <trkpt lat="43.94476" lon="7.24007">
        <ele>1364.72876</ele>
        <time>2009-05-31T07:47:49Z</time>
      </trkpt>
      <trkpt lat="43.94324" lon="7.24002">
        <ele>1359.922119</ele>
        <time>2009-05-31T07:48:24Z</time>
      </trkpt>
      <trkpt lat="43.94237" lon="7.23964">
        <ele>1354.154297</ele>
        <time>2009-05-31T07:48:39Z</time>
      </trkpt>
      <trkpt lat="43.9423" lon="7.23937">
        <ele>1351.750977</ele>
        <time>2009-05-31T07:48:42Z</time>
      </trkpt>
      <trkpt lat="43.94253" lon="7.23792">
        <ele>1341.176514</ele>
        <time>2009-05-31T07:48:58Z</time>
      </trkpt>
      <trkpt lat="43.94279" lon="7.23715">
        <ele>1333.005127</ele>
        <time>2009-05-31T07:49:08Z</time>
      </trkpt>
      <trkpt lat="43.94202" lon="7.23858">
        <ele>1317.143555</ele>
        <time>2009-05-31T07:49:29Z</time>
      </trkpt>
      <trkpt lat="43.94161" lon="7.23864">
        <ele>1309.453125</ele>
        <time>2009-05-31T07:49:36Z</time>
      </trkpt>
      <trkpt lat="43.94084" lon="7.23841">
        <ele>1299.839844</ele>
        <time>2009-05-31T07:49:48Z</time>
      </trkpt>
      <trkpt lat="43.94068" lon="7.23916">
        <ele>1290.707031</ele>
        <time>2009-05-31T07:49:59Z</time>
      </trkpt>
      <trkpt lat="43.94027" lon="7.23951">
        <ele>1284.45874</ele>
        <time>2009-05-31T07:50:07Z</time>
      </trkpt>
      <trkpt lat="43.9399" lon="7.23945">
        <ele>1278.210205</ele>
        <time>2009-05-31T07:50:13Z</time>
      </trkpt>
      <trkpt lat="43.93889" lon="7.23993">
        <ele>1273.884033</ele>
        <time>2009-05-31T07:50:34Z</time>
      </trkpt>
      <trkpt lat="43.93807" lon="7.23976">
        <ele>1265.713135</ele>
        <time>2009-05-31T07:50:53Z</time>
      </trkpt>
      <trkpt lat="43.93786" lon="7.2406">
        <ele>1255.619141</ele>
        <time>2009-05-31T07:51:07Z</time>
      </trkpt>
      <trkpt lat="43.93798" lon="7.24148">
        <ele>1248.889893</ele>
        <time>2009-05-31T07:51:21Z</time>
      </trkpt>
      <trkpt lat="43.93759" lon="7.24228">
        <ele>1241.199219</ele>
        <time>2009-05-31T07:51:36Z</time>
      </trkpt>
      <trkpt lat="43.93716" lon="7.24246">
        <ele>1237.354004</ele>
        <time>2009-05-31T07:51:45Z</time>
      </trkpt>
      <trkpt lat="43.93657" lon="7.24321">
        <ele>1232.066895</ele>
        <time>2009-05-31T07:52:01Z</time>
      </trkpt>
      <trkpt lat="43.93585" lon="7.24328">
        <ele>1226.779541</ele>
        <time>2009-05-31T07:52:16Z</time>
      </trkpt>
      <trkpt lat="43.93558" lon="7.24351">
        <ele>1226.298828</ele>
        <time>2009-05-31T07:52:23Z</time>
      </trkpt>
      <trkpt lat="43.93423" lon="7.24303">
        <ele>1223.415039</ele>
        <time>2009-05-31T07:52:48Z</time>
      </trkpt>
      <trkpt lat="43.93342" lon="7.24369">
        <ele>1210.437012</ele>
        <time>2009-05-31T07:53:06Z</time>
      </trkpt>
      <trkpt lat="43.93273" lon="7.24396">
        <ele>1193.133301</ele>
        <time>2009-05-31T07:53:27Z</time>
      </trkpt>
      <trkpt lat="43.93151" lon="7.24539">
        <ele>1158.04541</ele>
        <time>2009-05-31T07:54:07Z</time>
      </trkpt>
      <trkpt lat="43.93112" lon="7.2452">
        <ele>1146.028809</ele>
        <time>2009-05-31T07:54:19Z</time>
      </trkpt>
      <trkpt lat="43.93073" lon="7.24527">
        <ele>1143.144775</ele>
        <time>2009-05-31T07:54:28Z</time>
      </trkpt>
      <trkpt lat="43.93029" lon="7.24492">
        <ele>1136.415771</ele>
        <time>2009-05-31T07:54:40Z</time>
      </trkpt>
      <trkpt lat="43.92993" lon="7.2451">
        <ele>1127.283203</ele>
        <time>2009-05-31T07:54:50Z</time>
      </trkpt>
      <trkpt lat="43.92946" lon="7.24488">
        <ele>1118.631348</ele>
        <time>2009-05-31T07:55:04Z</time>
      </trkpt>
      <trkpt lat="43.92893" lon="7.24498">
        <ele>1113.343994</ele>
        <time>2009-05-31T07:55:19Z</time>
      </trkpt>
      <trkpt lat="43.9285" lon="7.24533">
        <ele>1108.537354</ele>
        <time>2009-05-31T07:55:32Z</time>
      </trkpt>
      <trkpt lat="43.92832" lon="7.24513">
        <ele>1103.730957</ele>
        <time>2009-05-31T07:55:41Z</time>
      </trkpt>
      <trkpt lat="43.92754" lon="7.2454">
        <ele>1094.598145</ele>
        <time>2009-05-31T07:56:09Z</time>
      </trkpt>
      <trkpt lat="43.92722" lon="7.24464">
        <ele>1090.272461</ele>
        <time>2009-05-31T07:56:36Z</time>
      </trkpt>
      <trkpt lat="43.92671" lon="7.24443">
        <ele>1092.195068</ele>
        <time>2009-05-31T07:57:14Z</time>
      </trkpt>
      <trkpt lat="43.92608" lon="7.24466">
        <ele>1086.907715</ele>
        <time>2009-05-31T07:57:30Z</time>
      </trkpt>
      <trkpt lat="43.92576" lon="7.24402">
        <ele>1068.162109</ele>
        <time>2009-05-31T07:57:52Z</time>
      </trkpt>
      <trkpt lat="43.92534" lon="7.24412">
        <ele>1053.261719</ele>
        <time>2009-05-31T07:58:14Z</time>
      </trkpt>
      <trkpt lat="43.92546" lon="7.24431">
        <ele>1047.493652</ele>
        <time>2009-05-31T07:58:25Z</time>
      </trkpt>
      <trkpt lat="43.92476" lon="7.24478">
        <ele>1024.422119</ele>
        <time>2009-05-31T07:58:53Z</time>
      </trkpt>
      <trkpt lat="43.92485" lon="7.24479">
        <ele>1022.499512</ele>
        <time>2009-05-31T07:59:03Z</time>
      </trkpt>
      <trkpt lat="43.92446" lon="7.24511">
        <ele>1009.521729</ele>
        <time>2009-05-31T07:59:20Z</time>
      </trkpt>
      <trkpt lat="43.92454" lon="7.24513">
        <ele>1006.637695</ele>
        <time>2009-05-31T07:59:24Z</time>
      </trkpt>
      <trkpt lat="43.92413" lon="7.24578">
        <ele>989.333984</ele>
        <time>2009-05-31T07:59:48Z</time>
      </trkpt>
      <trkpt lat="43.92376" lon="7.24559">
        <ele>990.29541</ele>
        <time>2009-05-31T08:00:05Z</time>
      </trkpt>
      <trkpt lat="43.92308" lon="7.24439">
        <ele>955.207031</ele>
        <time>2009-05-31T08:01:25Z</time>
      </trkpt>
      <trkpt lat="43.92314" lon="7.244">
        <ele>952.322998</ele>
        <time>2009-05-31T08:01:34Z</time>
      </trkpt>
      <trkpt lat="43.92256" lon="7.24385">
        <ele>932.616211</ele>
        <time>2009-05-31T08:02:20Z</time>
      </trkpt>
      <trkpt lat="43.9225" lon="7.24368">
        <ele>931.654785</ele>
        <time>2009-05-31T08:02:24Z</time>
      </trkpt>
      <trkpt lat="43.92213" lon="7.24368">
        <ele>924.925781</ele>
        <time>2009-05-31T08:02:32Z</time>
      </trkpt>
      <trkpt lat="43.92192" lon="7.24333">
        <ele>920.599609</ele>
        <time>2009-05-31T08:02:44Z</time>
      </trkpt>
      <trkpt lat="43.92164" lon="7.2433">
        <ele>913.389893</ele>
        <time>2009-05-31T08:02:54Z</time>
      </trkpt>
      <trkpt lat="43.92131" lon="7.24372">
        <ele>900.412109</ele>
        <time>2009-05-31T08:03:08Z</time>
      </trkpt>
      <trkpt lat="43.92063" lon="7.24369">
        <ele>875.898193</ele>
        <time>2009-05-31T08:03:37Z</time>
      </trkpt>
      <trkpt lat="43.92022" lon="7.24282">
        <ele>879.743652</ele>
        <time>2009-05-31T08:04:22Z</time>
      </trkpt>
      <trkpt lat="43.91969" lon="7.24229">
        <ele>889.837402</ele>
        <time>2009-05-31T08:05:09Z</time>
      </trkpt>
      <trkpt lat="43.91991" lon="7.24239">
        <ele>894.644043</ele>
        <time>2009-05-31T08:05:32Z</time>
      </trkpt>
      <trkpt lat="43.92065" lon="7.242">
        <ele>898.969971</ele>
        <time>2009-05-31T08:06:22Z</time>
      </trkpt>
      <trkpt lat="43.92082" lon="7.24107">
        <ele>900.892578</ele>
        <time>2009-05-31T08:06:49Z</time>
      </trkpt>
      <trkpt lat="43.92116" lon="7.24083">
        <ele>902.815185</ele>
        <time>2009-05-31T08:07:01Z</time>
      </trkpt>
      <trkpt lat="43.92138" lon="7.24038">
        <ele>904.257324</ele>
        <time>2009-05-31T08:07:12Z</time>
      </trkpt>
      <trkpt lat="43.9214" lon="7.23941">
        <ele>900.892578</ele>
        <time>2009-05-31T08:07:29Z</time>
      </trkpt>
      <trkpt lat="43.92127" lon="7.23896">
        <ele>902.334473</ele>
        <time>2009-05-31T08:07:39Z</time>
      </trkpt>
      <trkpt lat="43.92054" lon="7.23883">
        <ele>913.389893</ele>
        <time>2009-05-31T08:08:20Z</time>
      </trkpt>
      <trkpt lat="43.92029" lon="7.23844">
        <ele>915.793213</ele>
        <time>2009-05-31T08:08:42Z</time>
      </trkpt>
      <trkpt lat="43.92044" lon="7.23779">
        <ele>915.793213</ele>
        <time>2009-05-31T08:09:02Z</time>
      </trkpt>
      <trkpt lat="43.92034" lon="7.23733">
        <ele>917.235107</ele>
        <time>2009-05-31T08:09:12Z</time>
      </trkpt>
      <trkpt lat="43.92049" lon="7.23627">
        <ele>917.235107</ele>
        <time>2009-05-31T08:09:34Z</time>
      </trkpt>
      <trkpt lat="43.92019" lon="7.23434">
        <ele>931.654785</ele>
        <time>2009-05-31T08:10:34Z</time>
      </trkpt>
      <trkpt lat="43.92108" lon="7.23375">
        <ele>939.345215</ele>
        <time>2009-05-31T08:11:37Z</time>
      </trkpt>
      <trkpt lat="43.9209" lon="7.23314">
        <ele>936.941894</ele>
        <time>2009-05-31T08:11:51Z</time>
      </trkpt>
      <trkpt lat="43.92116" lon="7.23255">
        <ele>935.019531</ele>
        <time>2009-05-31T08:11:59Z</time>
      </trkpt>
      <trkpt lat="43.92238" lon="7.23095">
        <ele>947.516602</ele>
        <time>2009-05-31T08:13:17Z</time>
      </trkpt>
      <trkpt lat="43.92262" lon="7.2299">
        <ele>950.881103</ele>
        <time>2009-05-31T08:14:07Z</time>
      </trkpt>
      <trkpt lat="43.92304" lon="7.2292">
        <ele>956.64917</ele>
        <time>2009-05-31T08:14:31Z</time>
      </trkpt>
      <trkpt lat="43.92314" lon="7.22862">
        <ele>963.858887</ele>
        <time>2009-05-31T08:15:00Z</time>
      </trkpt>
      <trkpt lat="43.92398" lon="7.22835">
        <ele>966.262207</ele>
        <time>2009-05-31T08:15:39Z</time>
      </trkpt>
      <trkpt lat="43.92427" lon="7.22856">
        <ele>966.262207</ele>
        <time>2009-05-31T08:15:49Z</time>
      </trkpt>
      <trkpt lat="43.9246" lon="7.22852">
        <ele>967.223633</ele>
        <time>2009-05-31T08:15:59Z</time>
      </trkpt>
      <trkpt lat="43.92541" lon="7.22787">
        <ele>972.030273</ele>
        <time>2009-05-31T08:16:32Z</time>
      </trkpt>
      <trkpt lat="43.92552" lon="7.22751">
        <ele>974.433594</ele>
        <time>2009-05-31T08:16:44Z</time>
      </trkpt>
      <trkpt lat="43.92527" lon="7.22641">
        <ele>971.549316</ele>
        <time>2009-05-31T08:17:05Z</time>
      </trkpt>
      <trkpt lat="43.92481" lon="7.22548">
        <ele>967.704102</ele>
        <time>2009-05-31T08:17:22Z</time>
      </trkpt>
      <trkpt lat="43.92423" lon="7.22589">
        <ele>968.184815</ele>
        <time>2009-05-31T08:17:36Z</time>
      </trkpt>
      <trkpt lat="43.92352" lon="7.2257">
        <ele>972.030273</ele>
        <time>2009-05-31T08:17:58Z</time>
      </trkpt>
      <trkpt lat="43.92336" lon="7.2252">
        <ele>970.107422</ele>
        <time>2009-05-31T08:18:09Z</time>
      </trkpt>
      <trkpt lat="43.9234" lon="7.22453">
        <ele>970.588135</ele>
        <time>2009-05-31T08:18:24Z</time>
      </trkpt>
      <trkpt lat="43.92306" lon="7.22436">
        <ele>970.588135</ele>
        <time>2009-05-31T08:18:38Z</time>
      </trkpt>
      <trkpt lat="43.92298" lon="7.224">
        <ele>975.394775</ele>
        <time>2009-05-31T08:18:48Z</time>
      </trkpt>
      <trkpt lat="43.92232" lon="7.22333">
        <ele>986.449951</ele>
        <time>2009-05-31T08:21:35Z</time>
      </trkpt>
      <trkpt lat="43.9197" lon="7.22287">
        <ele>1048.454834</ele>
        <time>2009-05-31T08:27:11Z</time>
      </trkpt>
      <trkpt lat="43.91962" lon="7.22264">
        <ele>1048.935547</ele>
        <time>2009-05-31T08:27:22Z</time>
      </trkpt>
      <trkpt lat="43.91923" lon="7.22239">
        <ele>1054.703613</ele>
        <time>2009-05-31T08:27:47Z</time>
      </trkpt>
      <trkpt lat="43.91901" lon="7.22286">
        <ele>1057.587646</ele>
        <time>2009-05-31T08:28:30Z</time>
      </trkpt>
      <trkpt lat="43.91913" lon="7.22401">
        <ele>1059.510254</ele>
        <time>2009-05-31T08:29:01Z</time>
      </trkpt>
      <trkpt lat="43.91902" lon="7.22444">
        <ele>1056.626221</ele>
        <time>2009-05-31T08:29:07Z</time>
      </trkpt>
      <trkpt lat="43.91797" lon="7.22552">
        <ele>1055.665039</ele>
        <time>2009-05-31T08:29:36Z</time>
      </trkpt>
      <trkpt lat="43.91734" lon="7.22589">
        <ele>1054.703613</ele>
        <time>2009-05-31T08:29:48Z</time>
      </trkpt>
      <trkpt lat="43.91684" lon="7.22719">
        <ele>1038.361328</ele>
        <time>2009-05-31T08:30:04Z</time>
      </trkpt>
      <trkpt lat="43.91681" lon="7.22762">
        <ele>1032.593262</ele>
        <time>2009-05-31T08:30:08Z</time>
      </trkpt>
      <trkpt lat="43.91646" lon="7.22813">
        <ele>1027.786621</ele>
        <time>2009-05-31T08:30:17Z</time>
      </trkpt>
      <trkpt lat="43.91598" lon="7.22943">
        <ele>1036.919189</ele>
        <time>2009-05-31T08:30:54Z</time>
      </trkpt>
      <trkpt lat="43.91628" lon="7.23095">
        <ele>1052.781006</ele>
        <time>2009-05-31T08:31:59Z</time>
      </trkpt>
      <trkpt lat="43.9162" lon="7.2311">
        <ele>1056.626221</ele>
        <time>2009-05-31T08:32:14Z</time>
      </trkpt>
      <trkpt lat="43.91579" lon="7.23105">
        <ele>1059.029541</ele>
        <time>2009-05-31T08:32:43Z</time>
      </trkpt>
      <trkpt lat="43.91536" lon="7.23139">
        <ele>1062.394043</ele>
        <time>2009-05-31T08:33:07Z</time>
      </trkpt>
      <trkpt lat="43.91458" lon="7.23161">
        <ele>1072.007324</ele>
        <time>2009-05-31T08:33:42Z</time>
      </trkpt>
      <trkpt lat="43.91404" lon="7.23118">
        <ele>1082.581787</ele>
        <time>2009-05-31T08:34:59Z</time>
      </trkpt>
      <trkpt lat="43.91404" lon="7.23153">
        <ele>1087.388428</ele>
        <time>2009-05-31T08:35:27Z</time>
      </trkpt>
      <trkpt lat="43.91379" lon="7.23116">
        <ele>1092.675781</ele>
        <time>2009-05-31T08:36:06Z</time>
      </trkpt>
      <trkpt lat="43.91376" lon="7.23153">
        <ele>1097.001465</ele>
        <time>2009-05-31T08:36:38Z</time>
      </trkpt>
      <trkpt lat="43.91355" lon="7.23125">
        <ele>1101.327637</ele>
        <time>2009-05-31T08:37:05Z</time>
      </trkpt>
      <trkpt lat="43.9135" lon="7.23148">
        <ele>1105.172852</ele>
        <time>2009-05-31T08:37:31Z</time>
      </trkpt>
      <trkpt lat="43.9131" lon="7.23136">
        <ele>1118.150635</ele>
        <time>2009-05-31T08:38:42Z</time>
      </trkpt>
      <trkpt lat="43.91313" lon="7.23151">
        <ele>1119.592773</ele>
        <time>2009-05-31T08:38:59Z</time>
      </trkpt>
      <trkpt lat="43.91287" lon="7.2315">
        <ele>1129.686279</ele>
        <time>2009-05-31T08:39:47Z</time>
      </trkpt>
      <trkpt lat="43.91279" lon="7.23135">
        <ele>1131.608887</ele>
        <time>2009-05-31T08:40:03Z</time>
      </trkpt>
      <trkpt lat="43.91267" lon="7.23175">
        <ele>1138.338379</ele>
        <time>2009-05-31T08:40:58Z</time>
      </trkpt>
      <trkpt lat="43.9125" lon="7.23141">
        <ele>1144.58667</ele>
        <time>2009-05-31T08:41:31Z</time>
      </trkpt>
      <trkpt lat="43.91244" lon="7.23185">
        <ele>1148.912842</ele>
        <time>2009-05-31T08:42:07Z</time>
      </trkpt>
      <trkpt lat="43.91231" lon="7.23161">
        <ele>1153.23877</ele>
        <time>2009-05-31T08:42:35Z</time>
      </trkpt>
      <trkpt lat="43.91227" lon="7.23191">
        <ele>1157.083984</ele>
        <time>2009-05-31T08:42:59Z</time>
      </trkpt>
      <trkpt lat="43.91185" lon="7.23216">
        <ele>1167.658447</ele>
        <time>2009-05-31T08:43:55Z</time>
      </trkpt>
      <trkpt lat="43.91151" lon="7.23214">
        <ele>1169.581299</ele>
        <time>2009-05-31T08:44:24Z</time>
      </trkpt>
      <trkpt lat="43.91119" lon="7.23168">
        <ele>1172.465088</ele>
        <time>2009-05-31T08:44:47Z</time>
      </trkpt>
      <trkpt lat="43.91109" lon="7.2308">
        <ele>1178.23291</ele>
        <time>2009-05-31T08:45:12Z</time>
      </trkpt>
      <trkpt lat="43.91055" lon="7.22941">
        <ele>1181.597656</ele>
        <time>2009-05-31T08:45:59Z</time>
      </trkpt>
      <trkpt lat="43.90977" lon="7.22843">
        <ele>1181.117188</ele>
        <time>2009-05-31T08:50:19Z</time>
      </trkpt>
      <trkpt lat="43.90929" lon="7.22689">
        <ele>1159.967773</ele>
        <time>2009-05-31T08:52:24Z</time>
      </trkpt>
      <trkpt lat="43.90838" lon="7.22625">
        <ele>1130.647705</ele>
        <time>2009-05-31T08:53:09Z</time>
      </trkpt>
      <trkpt lat="43.90659" lon="7.22448">
        <ele>1080.65918</ele>
        <time>2009-05-31T08:54:42Z</time>
      </trkpt>
      <trkpt lat="43.9064" lon="7.22449">
        <ele>1072.488037</ele>
        <time>2009-05-31T08:54:51Z</time>
      </trkpt>
      <trkpt lat="43.90606" lon="7.22547">
        <ele>1051.81958</ele>
        <time>2009-05-31T08:55:11Z</time>
      </trkpt>
      <trkpt lat="43.90563" lon="7.22489">
        <ele>1036.919189</ele>
        <time>2009-05-31T08:55:24Z</time>
      </trkpt>
      <trkpt lat="43.90553" lon="7.22566">
        <ele>1021.538086</ele>
        <time>2009-05-31T08:55:40Z</time>
      </trkpt>
      <trkpt lat="43.90475" lon="7.22386">
        <ele>999.427734</ele>
        <time>2009-05-31T08:56:13Z</time>
      </trkpt>
      <trkpt lat="43.90381" lon="7.22349">
        <ele>985.488525</ele>
        <time>2009-05-31T08:56:30Z</time>
      </trkpt>
      <trkpt lat="43.90331" lon="7.22351">
        <ele>979.23999</ele>
        <time>2009-05-31T08:56:36Z</time>
      </trkpt>
      <trkpt lat="43.90239" lon="7.22408">
        <ele>973.952881</ele>
        <time>2009-05-31T08:56:48Z</time>
      </trkpt>
      <trkpt lat="43.90196" lon="7.22484">
        <ele>974.914307</ele>
        <time>2009-05-31T08:57:01Z</time>
      </trkpt>
      <trkpt lat="43.90196" lon="7.2255">
        <ele>976.836914</ele>
        <time>2009-05-31T08:57:12Z</time>
      </trkpt>
      <trkpt lat="43.9017" lon="7.22536">
        <ele>984.046631</ele>
        <time>2009-05-31T08:57:32Z</time>
      </trkpt>
      <trkpt lat="43.9015" lon="7.22562">
        <ele>989.814697</ele>
        <time>2009-05-31T08:58:04Z</time>
      </trkpt>
      <trkpt lat="43.90083" lon="7.22541">
        <ele>1005.195801</ele>
        <time>2009-05-31T08:59:20Z</time>
      </trkpt>
      <trkpt lat="43.90037" lon="7.2255">
        <ele>1013.847412</ele>
        <time>2009-05-31T09:00:10Z</time>
      </trkpt>
      <trkpt lat="43.90012" lon="7.22586">
        <ele>1020.576904</ele>
        <time>2009-05-31T09:00:37Z</time>
      </trkpt>
      <trkpt lat="43.89941" lon="7.22629">
        <ele>1029.228516</ele>
        <time>2009-05-31T09:01:26Z</time>
      </trkpt>
      <trkpt lat="43.89877" lon="7.22697">
        <ele>1043.167725</ele>
        <time>2009-05-31T09:02:19Z</time>
      </trkpt>
      <trkpt lat="43.8984" lon="7.22664">
        <ele>1049.41626</ele>
        <time>2009-05-31T09:02:55Z</time>
      </trkpt>
      <trkpt lat="43.8986" lon="7.22635">
        <ele>1048.454834</ele>
        <time>2009-05-31T09:03:12Z</time>
      </trkpt>
      <trkpt lat="43.89882" lon="7.22511">
        <ele>1054.223145</ele>
        <time>2009-05-31T09:03:54Z</time>
      </trkpt>
      <trkpt lat="43.89764" lon="7.22026">
        <ele>1065.278076</ele>
        <time>2009-05-31T09:06:01Z</time>
      </trkpt>
      <trkpt lat="43.89679" lon="7.21811">
        <ele>1059.029541</ele>
        <time>2009-05-31T09:06:58Z</time>
      </trkpt>
      <trkpt lat="43.89677" lon="7.21771">
        <ele>1054.223145</ele>
        <time>2009-05-31T09:07:12Z</time>
      </trkpt>
      <trkpt lat="43.89613" lon="7.21743">
        <ele>1044.609619</ele>
        <time>2009-05-31T09:08:03Z</time>
      </trkpt>
      <trkpt lat="43.89562" lon="7.21664">
        <ele>1027.306152</ele>
        <time>2009-05-31T09:08:19Z</time>
      </trkpt>
      <trkpt lat="43.8955" lon="7.21602">
        <ele>1016.731445</ele>
        <time>2009-05-31T09:08:31Z</time>
      </trkpt>
      <trkpt lat="43.8952" lon="7.21545">
        <ele>1006.156982</ele>
        <time>2009-05-31T09:08:43Z</time>
      </trkpt>
      <trkpt lat="43.89498" lon="7.21372">
        <ele>988.853516</ele>
        <time>2009-05-31T09:09:12Z</time>
      </trkpt>
      <trkpt lat="43.89504" lon="7.21244">
        <ele>979.23999</ele>
        <time>2009-05-31T09:10:03Z</time>
      </trkpt>
      <trkpt lat="43.89473" lon="7.21187">
        <ele>967.223633</ele>
        <time>2009-05-31T09:10:27Z</time>
      </trkpt>
      <trkpt lat="43.89305" lon="7.21042">
        <ele>950.881103</ele>
        <time>2009-05-31T09:11:17Z</time>
      </trkpt>
      <trkpt lat="43.89238" lon="7.21009">
        <ele>941.268066</ele>
        <time>2009-05-31T09:11:30Z</time>
      </trkpt>
      <trkpt lat="43.89184" lon="7.20956">
        <ele>929.732178</ele>
        <time>2009-05-31T09:11:47Z</time>
      </trkpt>
      <trkpt lat="43.89109" lon="7.20939">
        <ele>927.80957</ele>
        <time>2009-05-31T09:11:59Z</time>
      </trkpt>
      <trkpt lat="43.89046" lon="7.20866">
        <ele>922.041504</ele>
        <time>2009-05-31T09:12:17Z</time>
      </trkpt>
      <trkpt lat="43.89025" lon="7.20804">
        <ele>925.886963</ele>
        <time>2009-05-31T09:12:45Z</time>
      </trkpt>
      <trkpt lat="43.88847" lon="7.20683">
        <ele>880.224365</ele>
        <time>2009-05-31T09:13:59Z</time>
      </trkpt>
      <trkpt lat="43.88844" lon="7.20619">
        <ele>874.937012</ele>
        <time>2009-05-31T09:14:11Z</time>
      </trkpt>
      <trkpt lat="43.8886" lon="7.2054">
        <ele>870.611084</ele>
        <time>2009-05-31T09:14:23Z</time>
      </trkpt>
      <trkpt lat="43.88849" lon="7.20512">
        <ele>868.207764</ele>
        <time>2009-05-31T09:14:28Z</time>
      </trkpt>
      <trkpt lat="43.88788" lon="7.20463">
        <ele>856.671875</ele>
        <time>2009-05-31T09:14:40Z</time>
      </trkpt>
      <trkpt lat="43.88731" lon="7.20442">
        <ele>850.423584</ele>
        <time>2009-05-31T09:14:50Z</time>
      </trkpt>
      <trkpt lat="43.88624" lon="7.20467">
        <ele>828.313232</ele>
        <time>2009-05-31T09:15:13Z</time>
      </trkpt>
      <trkpt lat="43.88464" lon="7.20473">
        <ele>821.103272</ele>
        <time>2009-05-31T09:16:02Z</time>
      </trkpt>
      <trkpt lat="43.88356" lon="7.20581">
        <ele>826.871094</ele>
        <time>2009-05-31T09:16:45Z</time>
      </trkpt>
      <trkpt lat="43.88208" lon="7.20646">
        <ele>825.428955</ele>
        <time>2009-05-31T09:17:30Z</time>
      </trkpt>
      <trkpt lat="43.87983" lon="7.20618">
        <ele>824.467773</ele>
        <time>2009-05-31T09:18:26Z</time>
      </trkpt>
      <trkpt lat="43.87909" lon="7.20626">
        <ele>823.506592</ele>
        <time>2009-05-31T09:18:41Z</time>
      </trkpt>
      <trkpt lat="43.87875" lon="7.20655">
        <ele>820.141846</ele>
        <time>2009-05-31T09:18:50Z</time>
      </trkpt>
      <trkpt lat="43.87828" lon="7.20733">
        <ele>814.854736</ele>
        <time>2009-05-31T09:19:06Z</time>
      </trkpt>
      <trkpt lat="43.87668" lon="7.208">
        <ele>795.628174</ele>
        <time>2009-05-31T09:19:36Z</time>
      </trkpt>
      <trkpt lat="43.87366" lon="7.20795">
        <ele>741.313721</ele>
        <time>2009-05-31T09:20:39Z</time>
      </trkpt>
      <trkpt lat="43.87271" lon="7.20836">
        <ele>720.164795</ele>
        <time>2009-05-31T09:21:03Z</time>
      </trkpt>
      <trkpt lat="43.87165" lon="7.2082">
        <ele>701.41919</ele>
        <time>2009-05-31T09:21:30Z</time>
      </trkpt>
      <trkpt lat="43.87184" lon="7.20876">
        <ele>699.977051</ele>
        <time>2009-05-31T09:21:44Z</time>
      </trkpt>
      <trkpt lat="43.87383" lon="7.20909">
        <ele>695.17041</ele>
        <time>2009-05-31T09:22:38Z</time>
      </trkpt>
      <trkpt lat="43.87517" lon="7.21026">
        <ele>691.805908</ele>
        <time>2009-05-31T09:23:15Z</time>
      </trkpt>
      <trkpt lat="43.87531" lon="7.21061">
        <ele>693.247803</ele>
        <time>2009-05-31T09:23:25Z</time>
      </trkpt>
      <trkpt lat="43.87658" lon="7.21123">
        <ele>702.861084</ele>
        <time>2009-05-31T09:24:33Z</time>
      </trkpt>
      <trkpt lat="43.8769" lon="7.21174">
        <ele>703.341797</ele>
        <time>2009-05-31T09:24:54Z</time>
      </trkpt>
      <trkpt lat="43.87713" lon="7.21181">
        <ele>701.41919</ele>
        <time>2009-05-31T09:25:02Z</time>
      </trkpt>
      <trkpt lat="43.87756" lon="7.21251">
        <ele>707.667725</ele>
        <time>2009-05-31T09:25:47Z</time>
      </trkpt>
      <trkpt lat="43.87804" lon="7.21246">
        <ele>716.31958</ele>
        <time>2009-05-31T09:26:34Z</time>
      </trkpt>
      <trkpt lat="43.87871" lon="7.2116">
        <ele>721.126221</ele>
        <time>2009-05-31T09:27:25Z</time>
      </trkpt>
      <trkpt lat="43.87942" lon="7.21128">
        <ele>719.203613</ele>
        <time>2009-05-31T09:27:51Z</time>
      </trkpt>
      <trkpt lat="43.87991" lon="7.2114">
        <ele>716.31958</ele>
        <time>2009-05-31T09:28:04Z</time>
      </trkpt>
      <trkpt lat="43.88058" lon="7.21097">
        <ele>714.396728</ele>
        <time>2009-05-31T09:28:23Z</time>
      </trkpt>
      <trkpt lat="43.88242" lon="7.2103">
        <ele>710.551514</ele>
        <time>2009-05-31T09:29:30Z</time>
      </trkpt>
      <trkpt lat="43.88291" lon="7.21034">
        <ele>705.745117</ele>
        <time>2009-05-31T09:29:50Z</time>
      </trkpt>
      <trkpt lat="43.88371" lon="7.20965">
        <ele>701.41919</ele>
        <time>2009-05-31T09:30:17Z</time>
      </trkpt>
      <trkpt lat="43.88401" lon="7.20976">
        <ele>701.41919</ele>
        <time>2009-05-31T09:30:43Z</time>
      </trkpt>
      <trkpt lat="43.8838" lon="7.20998">
        <ele>699.496338</ele>
        <time>2009-05-31T09:30:59Z</time>
      </trkpt>
      <trkpt lat="43.88387" lon="7.21067">
        <ele>696.612549</ele>
        <time>2009-05-31T09:31:11Z</time>
      </trkpt>
      <trkpt lat="43.88397" lon="7.21074">
        <ele>695.17041</ele>
        <time>2009-05-31T09:31:15Z</time>
      </trkpt>
      <trkpt lat="43.8839" lon="7.21117">
        <ele>694.209228</ele>
        <time>2009-05-31T09:31:24Z</time>
      </trkpt>
      <trkpt lat="43.88401" lon="7.21157">
        <ele>691.325195</ele>
        <time>2009-05-31T09:31:32Z</time>
      </trkpt>
      <trkpt lat="43.88353" lon="7.21213">
        <ele>695.17041</ele>
        <time>2009-05-31T09:31:57Z</time>
      </trkpt>
      <trkpt lat="43.88339" lon="7.21278">
        <ele>690.844482</ele>
        <time>2009-05-31T09:32:15Z</time>
      </trkpt>
      <trkpt lat="43.88338" lon="7.21385">
        <ele>686.038086</ele>
        <time>2009-05-31T09:32:39Z</time>
      </trkpt>
      <trkpt lat="43.88354" lon="7.21409">
        <ele>680.750732</ele>
        <time>2009-05-31T09:32:52Z</time>
      </trkpt>
      <trkpt lat="43.88349" lon="7.21432">
        <ele>672.57959</ele>
        <time>2009-05-31T09:32:59Z</time>
      </trkpt>
      <trkpt lat="43.88374" lon="7.21524">
        <ele>655.275879</ele>
        <time>2009-05-31T09:33:33Z</time>
      </trkpt>
      <trkpt lat="43.8849" lon="7.21705">
        <ele>636.04956</ele>
        <time>2009-05-31T09:34:09Z</time>
      </trkpt>
      <trkpt lat="43.88492" lon="7.21754">
        <ele>634.126709</ele>
        <time>2009-05-31T09:34:16Z</time>
      </trkpt>
      <trkpt lat="43.88472" lon="7.218">
        <ele>635.088135</ele>
        <time>2009-05-31T09:34:27Z</time>
      </trkpt>
      <trkpt lat="43.88458" lon="7.21926">
        <ele>637.491455</ele>
        <time>2009-05-31T09:35:25Z</time>
      </trkpt>
      <trkpt lat="43.88471" lon="7.21993">
        <ele>645.662598</ele>
        <time>2009-05-31T09:36:08Z</time>
      </trkpt>
      <trkpt lat="43.88628" lon="7.22215">
        <ele>675.944092</ele>
        <time>2009-05-31T09:42:15Z</time>
      </trkpt>
      <trkpt lat="43.8869" lon="7.22255">
        <ele>680.270019</ele>
        <time>2009-05-31T09:43:23Z</time>
      </trkpt>
      <trkpt lat="43.88719" lon="7.22318">
        <ele>674.98291</ele>
        <time>2009-05-31T09:44:06Z</time>
      </trkpt>
      <trkpt lat="43.88692" lon="7.22377">
        <ele>660.562988</ele>
        <time>2009-05-31T09:44:30Z</time>
      </trkpt>
      <trkpt lat="43.88713" lon="7.22494">
        <ele>645.662598</ele>
        <time>2009-05-31T09:44:55Z</time>
      </trkpt>
      <trkpt lat="43.8871" lon="7.22574">
        <ele>630.281494</ele>
        <time>2009-05-31T09:45:14Z</time>
      </trkpt>
      <trkpt lat="43.88727" lon="7.22594">
        <ele>624.994385</ele>
        <time>2009-05-31T09:45:21Z</time>
      </trkpt>
      <trkpt lat="43.88729" lon="7.22628">
        <ele>615.381103</ele>
        <time>2009-05-31T09:45:41Z</time>
      </trkpt>
      <trkpt lat="43.88719" lon="7.22631">
        <ele>611.535889</ele>
        <time>2009-05-31T09:45:49Z</time>
      </trkpt>
      <trkpt lat="43.88713" lon="7.22747">
        <ele>588.945068</ele>
        <time>2009-05-31T09:46:23Z</time>
      </trkpt>
      <trkpt lat="43.88689" lon="7.22781">
        <ele>573.563965</ele>
        <time>2009-05-31T09:47:18Z</time>
      </trkpt>
      <trkpt lat="43.88665" lon="7.22736">
        <ele>564.431152</ele>
        <time>2009-05-31T09:47:39Z</time>
      </trkpt>
      <trkpt lat="43.88615" lon="7.22753">
        <ele>557.221435</ele>
        <time>2009-05-31T09:47:54Z</time>
      </trkpt>
      <trkpt lat="43.88584" lon="7.22808">
        <ele>552.895264</ele>
        <time>2009-05-31T09:48:08Z</time>
      </trkpt>
      <trkpt lat="43.88633" lon="7.22899">
        <ele>537.514282</ele>
        <time>2009-05-31T09:48:54Z</time>
      </trkpt>
      <trkpt lat="43.88618" lon="7.23007">
        <ele>516.845947</ele>
        <time>2009-05-31T09:49:20Z</time>
      </trkpt>
      <trkpt lat="43.88628" lon="7.23022">
        <ele>512.520019</ele>
        <time>2009-05-31T09:49:25Z</time>
      </trkpt>
      <trkpt lat="43.88616" lon="7.23065">
        <ele>495.696899</ele>
        <time>2009-05-31T09:49:39Z</time>
      </trkpt>
      <trkpt lat="43.88662" lon="7.23074">
        <ele>484.161133</ele>
        <time>2009-05-31T09:49:57Z</time>
      </trkpt>
      <trkpt lat="43.88682" lon="7.23127">
        <ele>474.547974</ele>
        <time>2009-05-31T09:50:13Z</time>
      </trkpt>
      <trkpt lat="43.88757" lon="7.23216">
        <ele>463.012085</ele>
        <time>2009-05-31T09:50:40Z</time>
      </trkpt>
      <trkpt lat="43.88778" lon="7.23284">
        <ele>441.863159</ele>
        <time>2009-05-31T09:51:19Z</time>
      </trkpt>
      <trkpt lat="43.88751" lon="7.23287">
        <ele>429.846558</ele>
        <time>2009-05-31T09:51:45Z</time>
      </trkpt>
      <trkpt lat="43.88741" lon="7.23312">
        <ele>426.001343</ele>
        <time>2009-05-31T09:51:53Z</time>
      </trkpt>
      <trkpt lat="43.88706" lon="7.23293">
        <ele>417.8302</ele>
        <time>2009-05-31T09:52:07Z</time>
      </trkpt>
      <trkpt lat="43.88615" lon="7.23356">
        <ele>397.642456</ele>
        <time>2009-05-31T09:52:33Z</time>
      </trkpt>
      <trkpt lat="43.88615" lon="7.23394">
        <ele>399.084351</ele>
        <time>2009-05-31T09:53:10Z</time>
      </trkpt>
      <trkpt lat="43.88542" lon="7.23501">
        <ele>399.565064</ele>
        <time>2009-05-31T09:53:39Z</time>
      </trkpt>
      <trkpt lat="43.88464" lon="7.23563">
        <ele>406.774902</ele>
        <time>2009-05-31T09:54:16Z</time>
      </trkpt>
      <trkpt lat="43.88456" lon="7.23647">
        <ele>413.984863</ele>
        <time>2009-05-31T09:54:59Z</time>
      </trkpt>
      <trkpt lat="43.88489" lon="7.23748">
        <ele>422.636719</ele>
        <time>2009-05-31T09:57:04Z</time>
      </trkpt>
      <trkpt lat="43.88475" lon="7.23931">
        <ele>428.885376</ele>
        <time>2009-05-31T09:58:37Z</time>
      </trkpt>
      <trkpt lat="43.88485" lon="7.24011">
        <ele>426.482056</ele>
        <time>2009-05-31T09:59:02Z</time>
      </trkpt>
      <trkpt lat="43.8854" lon="7.24082">
        <ele>423.598023</ele>
        <time>2009-05-31T09:59:39Z</time>
      </trkpt>
      <trkpt lat="43.88479" lon="7.24064">
        <ele>410.139648</ele>
        <time>2009-05-31T10:00:00Z</time>
      </trkpt>
      <trkpt lat="43.88404" lon="7.23881">
        <ele>384.184082</ele>
        <time>2009-05-31T10:00:42Z</time>
      </trkpt>
      <trkpt lat="43.88393" lon="7.23902">
        <ele>379.858032</ele>
        <time>2009-05-31T10:00:55Z</time>
      </trkpt>
      <trkpt lat="43.8839" lon="7.23867">
        <ele>373.128906</ele>
        <time>2009-05-31T10:01:04Z</time>
      </trkpt>
      <trkpt lat="43.88307" lon="7.23659">
        <ele>361.59314</ele>
        <time>2009-05-31T10:01:48Z</time>
      </trkpt>
      <trkpt lat="43.88299" lon="7.23603">
        <ele>359.189697</ele>
        <time>2009-05-31T10:02:03Z</time>
      </trkpt>
      <trkpt lat="43.88202" lon="7.2351">
        <ele>332.75354</ele>
        <time>2009-05-31T10:02:31Z</time>
      </trkpt>
      <trkpt lat="43.88194" lon="7.23453">
        <ele>320.73706</ele>
        <time>2009-05-31T10:02:42Z</time>
      </trkpt>
      <trkpt lat="43.88179" lon="7.23453">
        <ele>316.891724</ele>
        <time>2009-05-31T10:02:49Z</time>
      </trkpt>
      <trkpt lat="43.88188" lon="7.23436">
        <ele>313.527222</ele>
        <time>2009-05-31T10:02:54Z</time>
      </trkpt>
      <trkpt lat="43.88118" lon="7.23411">
        <ele>301.51062</ele>
        <time>2009-05-31T10:03:09Z</time>
      </trkpt>
      <trkpt lat="43.88099" lon="7.23429">
        <ele>298.146118</ele>
        <time>2009-05-31T10:03:16Z</time>
      </trkpt>
      <trkpt lat="43.8811" lon="7.23403">
        <ele>296.223511</ele>
        <time>2009-05-31T10:03:22Z</time>
      </trkpt>
      <trkpt lat="43.88096" lon="7.23399">
        <ele>291.897461</ele>
        <time>2009-05-31T10:03:29Z</time>
      </trkpt>
      <trkpt lat="43.88107" lon="7.23379">
        <ele>283.726196</ele>
        <time>2009-05-31T10:03:45Z</time>
      </trkpt>
      <trkpt lat="43.88088" lon="7.23372">
        <ele>278.919678</ele>
        <time>2009-05-31T10:03:52Z</time>
      </trkpt>
      <trkpt lat="43.88089" lon="7.23359">
        <ele>278.438965</ele>
        <time>2009-05-31T10:03:55Z</time>
      </trkpt>
      <trkpt lat="43.88149" lon="7.23347">
        <ele>265.941894</ele>
        <time>2009-05-31T10:04:12Z</time>
      </trkpt>
      <trkpt lat="43.88157" lon="7.2333">
        <ele>263.057861</ele>
        <time>2009-05-31T10:04:19Z</time>
      </trkpt>
      <trkpt lat="43.8809" lon="7.23277">
        <ele>262.577148</ele>
        <time>2009-05-31T10:04:45Z</time>
      </trkpt>
      <trkpt lat="43.88038" lon="7.23278">
        <ele>252.483398</ele>
        <time>2009-05-31T10:04:56Z</time>
      </trkpt>
      <trkpt lat="43.87987" lon="7.23253">
        <ele>244.312256</ele>
        <time>2009-05-31T10:05:09Z</time>
      </trkpt>
      <trkpt lat="43.87969" lon="7.23277">
        <ele>237.582886</ele>
        <time>2009-05-31T10:05:19Z</time>
      </trkpt>
      <trkpt lat="43.87946" lon="7.23125">
        <ele>221.721191</ele>
        <time>2009-05-31T10:05:51Z</time>
      </trkpt>
      <trkpt lat="43.87943" lon="7.23257">
        <ele>214.511231</ele>
        <time>2009-05-31T10:06:10Z</time>
      </trkpt>
      <trkpt lat="43.8791" lon="7.23136">
        <ele>202.494873</ele>
        <time>2009-05-31T10:06:29Z</time>
      </trkpt>
      <trkpt lat="43.87895" lon="7.23126">
        <ele>201.052856</ele>
        <time>2009-05-31T10:06:34Z</time>
      </trkpt>
      <trkpt lat="43.87845" lon="7.23142">
        <ele>202.975464</ele>
        <time>2009-05-31T10:07:17Z</time>
      </trkpt>
      <trkpt lat="43.87837" lon="7.23199">
        <ele>211.146728</ele>
        <time>2009-05-31T10:08:07Z</time>
      </trkpt>
      <trkpt lat="43.87809" lon="7.2308">
        <ele>231.814941</ele>
        <time>2009-05-31T10:09:54Z</time>
      </trkpt>
      <trkpt lat="43.87796" lon="7.23085">
        <ele>236.621704</ele>
        <time>2009-05-31T10:10:28Z</time>
      </trkpt>
      <trkpt lat="43.87724" lon="7.23017">
        <ele>251.041382</ele>
        <time>2009-05-31T10:12:27Z</time>
      </trkpt>
      <trkpt lat="43.87681" lon="7.23003">
        <ele>260.17395</ele>
        <time>2009-05-31T10:13:20Z</time>
      </trkpt>
      <trkpt lat="43.87647" lon="7.22965">
        <ele>266.422485</ele>
        <time>2009-05-31T10:14:02Z</time>
      </trkpt>
      <trkpt lat="43.87603" lon="7.22869">
        <ele>273.151856</ele>
        <time>2009-05-31T10:14:54Z</time>
      </trkpt>
      <trkpt lat="43.8755" lon="7.2285">
        <ele>275.555054</ele>
        <time>2009-05-31T10:15:22Z</time>
      </trkpt>
      <trkpt lat="43.87566" lon="7.22783">
        <ele>282.765015</ele>
        <time>2009-05-31T10:16:11Z</time>
      </trkpt>
      <trkpt lat="43.87555" lon="7.22726">
        <ele>291.897461</ele>
        <time>2009-05-31T10:17:02Z</time>
      </trkpt>
      <trkpt lat="43.87538" lon="7.22705">
        <ele>298.146118</ele>
        <time>2009-05-31T10:17:35Z</time>
      </trkpt>
      <trkpt lat="43.87538" lon="7.22766">
        <ele>305.355957</ele>
        <time>2009-05-31T10:18:30Z</time>
      </trkpt>
      <trkpt lat="43.8752" lon="7.22723">
        <ele>313.046509</ele>
        <time>2009-05-31T10:19:14Z</time>
      </trkpt>
      <trkpt lat="43.87514" lon="7.22751">
        <ele>317.372436</ele>
        <time>2009-05-31T10:19:47Z</time>
      </trkpt>
      <trkpt lat="43.87499" lon="7.22712">
        <ele>323.620972</ele>
        <time>2009-05-31T10:20:28Z</time>
      </trkpt>
      <trkpt lat="43.87494" lon="7.22749">
        <ele>330.830933</ele>
        <time>2009-05-31T10:21:10Z</time>
      </trkpt>
      <trkpt lat="43.87479" lon="7.22688">
        <ele>339.002075</ele>
        <time>2009-05-31T10:22:16Z</time>
      </trkpt>
      <trkpt lat="43.87473" lon="7.22727">
        <ele>344.289429</ele>
        <time>2009-05-31T10:25:15Z</time>
      </trkpt>
      <trkpt lat="43.8746" lon="7.22709">
        <ele>349.576538</ele>
        <time>2009-05-31T10:25:51Z</time>
      </trkpt>
      <trkpt lat="43.87458" lon="7.22723">
        <ele>351.979858</ele>
        <time>2009-05-31T10:26:09Z</time>
      </trkpt>
      <trkpt lat="43.87447" lon="7.22632">
        <ele>363.996338</ele>
        <time>2009-05-31T10:28:03Z</time>
      </trkpt>
      <trkpt lat="43.87445" lon="7.22648">
        <ele>366.399536</ele>
        <time>2009-05-31T10:28:32Z</time>
      </trkpt>
      <trkpt lat="43.8741" lon="7.2263">
        <ele>374.570801</ele>
        <time>2009-05-31T10:29:38Z</time>
      </trkpt>
      <trkpt lat="43.87363" lon="7.22675">
        <ele>382.742065</ele>
        <time>2009-05-31T10:30:49Z</time>
      </trkpt>
      <trkpt lat="43.87326" lon="7.22687">
        <ele>391.874512</ele>
        <time>2009-05-31T10:32:01Z</time>
      </trkpt>
      <trkpt lat="43.87192" lon="7.22499">
        <ele>420.233398</ele>
        <time>2009-05-31T10:37:10Z</time>
      </trkpt>
      <trkpt lat="43.87185" lon="7.22523">
        <ele>422.156006</ele>
        <time>2009-05-31T10:37:51Z</time>
      </trkpt>
      <trkpt lat="43.87136" lon="7.22567">
        <ele>426.001343</ele>
        <time>2009-05-31T10:38:55Z</time>
      </trkpt>
      <trkpt lat="43.87081" lon="7.22654">
        <ele>429.365967</ele>
        <time>2009-05-31T10:40:15Z</time>
      </trkpt>
      <trkpt lat="43.87031" lon="7.22584">
        <ele>439.459717</ele>
        <time>2009-05-31T10:41:31Z</time>
      </trkpt>
      <trkpt lat="43.86991" lon="7.22589">
        <ele>445.227661</ele>
        <time>2009-05-31T10:42:14Z</time>
      </trkpt>
      <trkpt lat="43.87017" lon="7.22624">
        <ele>450.515015</ele>
        <time>2009-05-31T10:42:59Z</time>
      </trkpt>
      <trkpt lat="43.86996" lon="7.22615">
        <ele>454.36023</ele>
        <time>2009-05-31T10:43:33Z</time>
      </trkpt>
      <trkpt lat="43.86899" lon="7.22662">
        <ele>470.702637</ele>
        <time>2009-05-31T10:46:31Z</time>
      </trkpt>
      <trkpt lat="43.86855" lon="7.22714">
        <ele>477.431885</ele>
        <time>2009-05-31T10:47:51Z</time>
      </trkpt>
      <trkpt lat="43.8686" lon="7.22758">
        <ele>482.238525</ele>
        <time>2009-05-31T10:48:36Z</time>
      </trkpt>
      <trkpt lat="43.86793" lon="7.22826">
        <ele>493.293579</ele>
        <time>2009-05-31T10:50:19Z</time>
      </trkpt>
      <trkpt lat="43.8671" lon="7.2285">
        <ele>505.310181</ele>
        <time>2009-05-31T10:52:05Z</time>
      </trkpt>
      <trkpt lat="43.86689" lon="7.22832">
        <ele>505.310181</ele>
        <time>2009-05-31T10:52:22Z</time>
      </trkpt>
      <trkpt lat="43.8662" lon="7.22868">
        <ele>513.000732</ele>
        <time>2009-05-31T10:53:14Z</time>
      </trkpt>
      <trkpt lat="43.86616" lon="7.22896">
        <ele>516.845947</ele>
        <time>2009-05-31T10:53:47Z</time>
      </trkpt>
      <trkpt lat="43.86624" lon="7.2288">
        <ele>521.171997</ele>
        <time>2009-05-31T10:54:19Z</time>
      </trkpt>
      <trkpt lat="43.86672" lon="7.22895">
        <ele>529.34314</ele>
        <time>2009-05-31T10:55:29Z</time>
      </trkpt>
      <trkpt lat="43.86702" lon="7.22942">
        <ele>528.862549</ele>
        <time>2009-05-31T10:56:33Z</time>
      </trkpt>
      <trkpt lat="43.86722" lon="7.22915">
        <ele>533.188354</ele>
        <time>2009-05-31T10:57:07Z</time>
      </trkpt>
      <trkpt lat="43.86816" lon="7.22927">
        <ele>548.088867</ele>
        <time>2009-05-31T10:59:50Z</time>
      </trkpt>
      <trkpt lat="43.86867" lon="7.22914">
        <ele>553.85669</ele>
        <time>2009-05-31T11:01:14Z</time>
      </trkpt>
      <trkpt lat="43.86923" lon="7.22928">
        <ele>561.06665</ele>
        <time>2009-05-31T11:02:44Z</time>
      </trkpt>
      <trkpt lat="43.86953" lon="7.229">
        <ele>566.35376</ele>
        <time>2009-05-31T11:03:32Z</time>
      </trkpt>
      <trkpt lat="43.86945" lon="7.22963">
        <ele>573.083252</ele>
        <time>2009-05-31T11:04:49Z</time>
      </trkpt>
      <trkpt lat="43.86885" lon="7.22965">
        <ele>572.121826</ele>
        <time>2009-05-31T11:05:24Z</time>
      </trkpt>
      <trkpt lat="43.8679" lon="7.23003">
        <ele>581.254394</ele>
        <time>2009-05-31T11:06:37Z</time>
      </trkpt>
      <trkpt lat="43.86728" lon="7.23077">
        <ele>593.751465</ele>
        <time>2009-05-31T11:09:58Z</time>
      </trkpt>
      <trkpt lat="43.86682" lon="7.23107">
        <ele>593.751465</ele>
        <time>2009-05-31T11:10:28Z</time>
      </trkpt>
      <trkpt lat="43.86624" lon="7.23216">
        <ele>595.193359</ele>
        <time>2009-05-31T11:11:13Z</time>
      </trkpt>
      <trkpt lat="43.86538" lon="7.23227">
        <ele>609.613281</ele>
        <time>2009-05-31T11:16:35Z</time>
      </trkpt>
      <trkpt lat="43.86569" lon="7.2325">
        <ele>614.419678</ele>
        <time>2009-05-31T11:23:37Z</time>
      </trkpt>
      <trkpt lat="43.8657" lon="7.23275">
        <ele>616.822998</ele>
        <time>2009-05-31T11:25:13Z</time>
      </trkpt>
      <trkpt lat="43.86625" lon="7.23317">
        <ele>637.491455</ele>
        <time>2009-05-31T11:28:01Z</time>
      </trkpt>
      <trkpt lat="43.86746" lon="7.23275">
        <ele>666.33081</ele>
        <time>2009-05-31T11:31:23Z</time>
      </trkpt>
      <trkpt lat="43.86642" lon="7.23374">
        <ele>664.408203</ele>
        <time>2009-05-31T11:32:57Z</time>
      </trkpt>
      <trkpt lat="43.86566" lon="7.23385">
        <ele>664.888916</ele>
        <time>2009-05-31T11:33:22Z</time>
      </trkpt>
      <trkpt lat="43.865" lon="7.23466">
        <ele>662.966309</ele>
        <time>2009-05-31T11:33:50Z</time>
      </trkpt>
      <trkpt lat="43.8648" lon="7.23519">
        <ele>662.485596</ele>
        <time>2009-05-31T11:34:03Z</time>
      </trkpt>
      <trkpt lat="43.86473" lon="7.23589">
        <ele>662.005127</ele>
        <time>2009-05-31T11:34:19Z</time>
      </trkpt>
      <trkpt lat="43.8638" lon="7.23766">
        <ele>660.082275</ele>
        <time>2009-05-31T11:35:08Z</time>
      </trkpt>
      <trkpt lat="43.86338" lon="7.23722">
        <ele>660.562988</ele>
        <time>2009-05-31T11:35:26Z</time>
      </trkpt>
      <trkpt lat="43.86173" lon="7.23794">
        <ele>660.082275</ele>
        <time>2009-05-31T11:36:15Z</time>
      </trkpt>
      <trkpt lat="43.86169" lon="7.23678">
        <ele>658.640381</ele>
        <time>2009-05-31T11:36:47Z</time>
      </trkpt>
      <trkpt lat="43.86147" lon="7.23666">
        <ele>665.369629</ele>
        <time>2009-05-31T11:37:30Z</time>
      </trkpt>
      <trkpt lat="43.86151" lon="7.23732">
        <ele>667.292236</ele>
        <time>2009-05-31T11:38:03Z</time>
      </trkpt>
      <trkpt lat="43.86123" lon="7.23838">
        <ele>673.060303</ele>
        <time>2009-05-31T11:38:46Z</time>
      </trkpt>
      <trkpt lat="43.8614" lon="7.23974">
        <ele>687.479981</ele>
        <time>2009-05-31T11:40:04Z</time>
      </trkpt>
      <trkpt lat="43.86133" lon="7.24028">
        <ele>687.479981</ele>
        <time>2009-05-31T11:40:27Z</time>
      </trkpt>
      <trkpt lat="43.8615" lon="7.24069">
        <ele>685.557373</ele>
        <time>2009-05-31T11:40:36Z</time>
      </trkpt>
      <trkpt lat="43.86196" lon="7.23993">
        <ele>687.479981</ele>
        <time>2009-05-31T11:41:02Z</time>
      </trkpt>
      <trkpt lat="43.86194" lon="7.23971">
        <ele>686.999268</ele>
        <time>2009-05-31T11:41:07Z</time>
      </trkpt>
      <trkpt lat="43.86221" lon="7.23911">
        <ele>686.999268</ele>
        <time>2009-05-31T11:41:25Z</time>
      </trkpt>
      <trkpt lat="43.86308" lon="7.23835">
        <ele>692.286621</ele>
        <time>2009-05-31T11:42:01Z</time>
      </trkpt>
      <trkpt lat="43.86352" lon="7.23904">
        <ele>696.612549</ele>
        <time>2009-05-31T11:42:24Z</time>
      </trkpt>
      <trkpt lat="43.86424" lon="7.23926">
        <ele>701.41919</ele>
        <time>2009-05-31T11:43:00Z</time>
      </trkpt>
      <trkpt lat="43.86497" lon="7.23917">
        <ele>708.628906</ele>
        <time>2009-05-31T11:43:38Z</time>
      </trkpt>
      <trkpt lat="43.86539" lon="7.23853">
        <ele>713.435547</ele>
        <time>2009-05-31T11:44:11Z</time>
      </trkpt>
      <trkpt lat="43.86598" lon="7.23876">
        <ele>719.203613</ele>
        <time>2009-05-31T11:44:46Z</time>
      </trkpt>
      <trkpt lat="43.86644" lon="7.23976">
        <ele>727.855225</ele>
        <time>2009-05-31T11:45:38Z</time>
      </trkpt>
      <trkpt lat="43.86681" lon="7.24016">
        <ele>733.623291</ele>
        <time>2009-05-31T11:46:07Z</time>
      </trkpt>
      <trkpt lat="43.86688" lon="7.24053">
        <ele>736.026611</ele>
        <time>2009-05-31T11:46:24Z</time>
      </trkpt>
      <trkpt lat="43.86666" lon="7.24105">
        <ele>738.910644</ele>
        <time>2009-05-31T11:46:50Z</time>
      </trkpt>
      <trkpt lat="43.86579" lon="7.24175">
        <ele>743.236328</ele>
        <time>2009-05-31T11:47:47Z</time>
      </trkpt>
      <trkpt lat="43.86485" lon="7.24206">
        <ele>752.368897</ele>
        <time>2009-05-31T11:48:47Z</time>
      </trkpt>
      <trkpt lat="43.86449" lon="7.24264">
        <ele>756.694824</ele>
        <time>2009-05-31T11:49:23Z</time>
      </trkpt>
      <trkpt lat="43.86435" lon="7.24318">
        <ele>760.059326</ele>
        <time>2009-05-31T11:49:51Z</time>
      </trkpt>
      <trkpt lat="43.86395" lon="7.24389">
        <ele>765.827637</ele>
        <time>2009-05-31T11:50:35Z</time>
      </trkpt>
      <trkpt lat="43.86389" lon="7.24439">
        <ele>769.192139</ele>
        <time>2009-05-31T11:50:59Z</time>
      </trkpt>
      <trkpt lat="43.86445" lon="7.24593">
        <ele>783.611816</ele>
        <time>2009-05-31T11:52:24Z</time>
      </trkpt>
      <trkpt lat="43.86437" lon="7.24656">
        <ele>786.015137</ele>
        <time>2009-05-31T11:52:55Z</time>
      </trkpt>
      <trkpt lat="43.86373" lon="7.24868">
        <ele>803.318848</ele>
        <time>2009-05-31T11:54:49Z</time>
      </trkpt>
      <trkpt lat="43.86368" lon="7.25011">
        <ele>813.89331</ele>
        <time>2009-05-31T11:55:59Z</time>
      </trkpt>
      <trkpt lat="43.86436" lon="7.25271">
        <ele>833.119629</ele>
        <time>2009-05-31T11:58:19Z</time>
      </trkpt>
      <trkpt lat="43.86502" lon="7.25604">
        <ele>858.594482</ele>
        <time>2009-05-31T12:01:20Z</time>
      </trkpt>
      <trkpt lat="43.86542" lon="7.25655">
        <ele>861.959473</ele>
        <time>2009-05-31T12:02:00Z</time>
      </trkpt>
      <trkpt lat="43.86563" lon="7.25721">
        <ele>868.688477</ele>
        <time>2009-05-31T12:08:10Z</time>
      </trkpt>
      <trkpt lat="43.86572" lon="7.25718">
        <ele>871.091797</ele>
        <time>2009-05-31T12:08:17Z</time>
      </trkpt>
      <trkpt lat="43.86549" lon="7.2562">
        <ele>877.821045</ele>
        <time>2009-05-31T12:09:09Z</time>
      </trkpt>
      <trkpt lat="43.86548" lon="7.25545">
        <ele>883.108154</ele>
        <time>2009-05-31T12:09:51Z</time>
      </trkpt>
      <trkpt lat="43.86559" lon="7.25593">
        <ele>887.434082</ele>
        <time>2009-05-31T12:10:21Z</time>
      </trkpt>
      <trkpt lat="43.86681" lon="7.25756">
        <ele>917.715576</ele>
        <time>2009-05-31T12:14:23Z</time>
      </trkpt>
      <trkpt lat="43.8668" lon="7.25793">
        <ele>914.351074</ele>
        <time>2009-05-31T12:15:03Z</time>
      </trkpt>
      <trkpt lat="43.86666" lon="7.25803">
        <ele>910.025147</ele>
        <time>2009-05-31T12:15:10Z</time>
      </trkpt>
      <trkpt lat="43.86666" lon="7.25835">
        <ele>905.218506</ele>
        <time>2009-05-31T12:15:21Z</time>
      </trkpt>
      <trkpt lat="43.86712" lon="7.25931">
        <ele>894.163574</ele>
        <time>2009-05-31T12:15:57Z</time>
      </trkpt>
      <trkpt lat="43.86686" lon="7.25952">
        <ele>885.511475</ele>
        <time>2009-05-31T12:16:14Z</time>
      </trkpt>
      <trkpt lat="43.86657" lon="7.26027">
        <ele>868.688477</ele>
        <time>2009-05-31T12:17:22Z</time>
      </trkpt>
      <trkpt lat="43.8665" lon="7.26018">
        <ele>864.843262</ele>
        <time>2009-05-31T12:17:31Z</time>
      </trkpt>
      <trkpt lat="43.8662" lon="7.26041">
        <ele>851.384766</ele>
        <time>2009-05-31T12:17:51Z</time>
      </trkpt>
      <trkpt lat="43.86614" lon="7.26072">
        <ele>841.290772</ele>
        <time>2009-05-31T12:18:02Z</time>
      </trkpt>
      <trkpt lat="43.86542" lon="7.2607">
        <ele>844.175049</ele>
        <time>2009-05-31T12:19:27Z</time>
      </trkpt>
      <trkpt lat="43.86484" lon="7.26046">
        <ele>849.942871</ele>
        <time>2009-05-31T12:20:27Z</time>
      </trkpt>
      <trkpt lat="43.86461" lon="7.26052">
        <ele>849.942871</ele>
        <time>2009-05-31T12:20:42Z</time>
      </trkpt>
      <trkpt lat="43.86392" lon="7.2598">
        <ele>851.865478</ele>
        <time>2009-05-31T12:21:39Z</time>
      </trkpt>
      <trkpt lat="43.86329" lon="7.2596">
        <ele>853.788086</ele>
        <time>2009-05-31T12:22:11Z</time>
      </trkpt>
      <trkpt lat="43.8626" lon="7.2589">
        <ele>850.423584</ele>
        <time>2009-05-31T12:22:48Z</time>
      </trkpt>
      <trkpt lat="43.8615" lon="7.2571">
        <ele>826.390381</ele>
        <time>2009-05-31T12:23:35Z</time>
      </trkpt>
      <trkpt lat="43.86114" lon="7.25702">
        <ele>819.661377</ele>
        <time>2009-05-31T12:23:45Z</time>
      </trkpt>
      <trkpt lat="43.86069" lon="7.25646">
        <ele>812.932129</ele>
        <time>2009-05-31T12:23:58Z</time>
      </trkpt>
      <trkpt lat="43.85983" lon="7.25613">
        <ele>797.070313</ele>
        <time>2009-05-31T12:24:17Z</time>
      </trkpt>
      <trkpt lat="43.85971" lon="7.25579">
        <ele>792.744385</ele>
        <time>2009-05-31T12:24:25Z</time>
      </trkpt>
      <trkpt lat="43.85944" lon="7.25565">
        <ele>788.418457</ele>
        <time>2009-05-31T12:24:31Z</time>
      </trkpt>
      <trkpt lat="43.85939" lon="7.25517">
        <ele>786.49585</ele>
        <time>2009-05-31T12:24:40Z</time>
      </trkpt>
      <trkpt lat="43.85836" lon="7.25407">
        <ele>783.131103</ele>
        <time>2009-05-31T12:25:15Z</time>
      </trkpt>
      <trkpt lat="43.85765" lon="7.25378">
        <ele>783.611816</ele>
        <time>2009-05-31T12:25:41Z</time>
      </trkpt>
      <trkpt lat="43.8572" lon="7.25413">
        <ele>785.053955</ele>
        <time>2009-05-31T12:25:57Z</time>
      </trkpt>
      <trkpt lat="43.85329" lon="7.25306">
        <ele>760.540039</ele>
        <time>2009-05-31T12:27:29Z</time>
      </trkpt>
      <trkpt lat="43.85191" lon="7.25339">
        <ele>742.755859</ele>
        <time>2009-05-31T12:27:50Z</time>
      </trkpt>
      <trkpt lat="43.85124" lon="7.25254">
        <ele>730.739258</ele>
        <time>2009-05-31T12:28:17Z</time>
      </trkpt>
      <trkpt lat="43.85061" lon="7.25218">
        <ele>715.838867</ele>
        <time>2009-05-31T12:28:33Z</time>
      </trkpt>
      <trkpt lat="43.84906" lon="7.25168">
        <ele>709.590332</ele>
        <time>2009-05-31T12:29:18Z</time>
      </trkpt>
      <trkpt lat="43.84861" lon="7.25088">
        <ele>684.596191</ele>
        <time>2009-05-31T12:29:40Z</time>
      </trkpt>
      <trkpt lat="43.84779" lon="7.25051">
        <ele>672.098877</ele>
        <time>2009-05-31T12:29:58Z</time>
      </trkpt>
      <trkpt lat="43.84761" lon="7.25089">
        <ele>666.811523</ele>
        <time>2009-05-31T12:30:05Z</time>
      </trkpt>
      <trkpt lat="43.8471" lon="7.25133">
        <ele>669.695801</ele>
        <time>2009-05-31T12:30:24Z</time>
      </trkpt>
      <trkpt lat="43.84595" lon="7.25163">
        <ele>674.98291</ele>
        <time>2009-05-31T12:31:20Z</time>
      </trkpt>
      <trkpt lat="43.84574" lon="7.25203">
        <ele>675.944092</ele>
        <time>2009-05-31T12:31:34Z</time>
      </trkpt>
      <trkpt lat="43.845" lon="7.25238">
        <ele>675.463379</ele>
        <time>2009-05-31T12:32:03Z</time>
      </trkpt>
      <trkpt lat="43.84345" lon="7.25195">
        <ele>666.33081</ele>
        <time>2009-05-31T12:32:37Z</time>
      </trkpt>
      <trkpt lat="43.84105" lon="7.25022">
        <ele>606.729248</ele>
        <time>2009-05-31T12:33:54Z</time>
      </trkpt>
      <trkpt lat="43.84056" lon="7.24907">
        <ele>573.083252</ele>
        <time>2009-05-31T12:34:26Z</time>
      </trkpt>
      <trkpt lat="43.84019" lon="7.24877">
        <ele>565.392578</ele>
        <time>2009-05-31T12:34:38Z</time>
      </trkpt>
      <trkpt lat="43.84023" lon="7.2484">
        <ele>560.105225</ele>
        <time>2009-05-31T12:34:53Z</time>
      </trkpt>
      <trkpt lat="43.84006" lon="7.24876">
        <ele>561.06665</ele>
        <time>2009-05-31T12:35:08Z</time>
      </trkpt>
      <trkpt lat="43.84018" lon="7.2498">
        <ele>555.298584</ele>
        <time>2009-05-31T12:35:44Z</time>
      </trkpt>
      <trkpt lat="43.83995" lon="7.25029">
        <ele>553.85669</ele>
        <time>2009-05-31T12:36:02Z</time>
      </trkpt>
      <trkpt lat="43.84002" lon="7.25071">
        <ele>550.011475</ele>
        <time>2009-05-31T12:36:45Z</time>
      </trkpt>
      <trkpt lat="43.83978" lon="7.25054">
        <ele>558.182861</ele>
        <time>2009-05-31T12:37:27Z</time>
      </trkpt>
      <trkpt lat="43.8395" lon="7.24989">
        <ele>568.276367</ele>
        <time>2009-05-31T12:38:24Z</time>
      </trkpt>
      <trkpt lat="43.83949" lon="7.25002">
        <ele>570.198975</ele>
        <time>2009-05-31T12:38:45Z</time>
      </trkpt>
      <trkpt lat="43.83937" lon="7.2499">
        <ele>575.005859</ele>
        <time>2009-05-31T12:39:11Z</time>
      </trkpt>
      <trkpt lat="43.8394" lon="7.25006">
        <ele>577.889648</ele>
        <time>2009-05-31T12:39:27Z</time>
      </trkpt>
      <trkpt lat="43.8391" lon="7.24985">
        <ele>586.060791</ele>
        <time>2009-05-31T12:40:24Z</time>
      </trkpt>
      <trkpt lat="43.83911" lon="7.24996">
        <ele>587.983398</ele>
        <time>2009-05-31T12:40:39Z</time>
      </trkpt>
      <trkpt lat="43.83897" lon="7.24993">
        <ele>592.30957</ele>
        <time>2009-05-31T12:41:17Z</time>
      </trkpt>
      <trkpt lat="43.83898" lon="7.25034">
        <ele>602.403076</ele>
        <time>2009-05-31T12:42:28Z</time>
      </trkpt>
      <trkpt lat="43.83812" lon="7.24982">
        <ele>600.480713</ele>
        <time>2009-05-31T12:43:48Z</time>
      </trkpt>
      <trkpt lat="43.8377" lon="7.24997">
        <ele>597.115967</ele>
        <time>2009-05-31T12:44:05Z</time>
      </trkpt>
      <trkpt lat="43.83664" lon="7.24978">
        <ele>564.911865</ele>
        <time>2009-05-31T12:44:45Z</time>
      </trkpt>
      <trkpt lat="43.83635" lon="7.25005">
        <ele>552.895264</ele>
        <time>2009-05-31T12:45:01Z</time>
      </trkpt>
      <trkpt lat="43.83629" lon="7.24959">
        <ele>541.84021</ele>
        <time>2009-05-31T12:45:13Z</time>
      </trkpt>
      <trkpt lat="43.83616" lon="7.25096">
        <ele>548.088867</ele>
        <time>2009-05-31T12:46:23Z</time>
      </trkpt>
      <trkpt lat="43.83598" lon="7.25157">
        <ele>543.282104</ele>
        <time>2009-05-31T12:47:18Z</time>
      </trkpt>
      <trkpt lat="43.83571" lon="7.25048">
        <ele>511.558716</ele>
        <time>2009-05-31T12:49:05Z</time>
      </trkpt>
      <trkpt lat="43.83543" lon="7.25018">
        <ele>508.674683</ele>
        <time>2009-05-31T12:51:33Z</time>
      </trkpt>
      <trkpt lat="43.83552" lon="7.24993">
        <ele>513.000732</ele>
        <time>2009-05-31T12:52:22Z</time>
      </trkpt>
      <trkpt lat="43.83541" lon="7.24953">
        <ele>520.691284</ele>
        <time>2009-05-31T12:53:18Z</time>
      </trkpt>
      <trkpt lat="43.8355" lon="7.2485">
        <ele>513.000732</ele>
        <time>2009-05-31T12:54:19Z</time>
      </trkpt>
      <trkpt lat="43.83528" lon="7.24779">
        <ele>513.962036</ele>
        <time>2009-05-31T12:54:40Z</time>
      </trkpt>
      <trkpt lat="43.83466" lon="7.24708">
        <ele>517.32666</ele>
        <time>2009-05-31T12:55:29Z</time>
      </trkpt>
      <trkpt lat="43.83192" lon="7.24787">
        <ele>524.536499</ele>
        <time>2009-05-31T12:56:46Z</time>
      </trkpt>
      <trkpt lat="43.83136" lon="7.24831">
        <ele>530.785156</ele>
        <time>2009-05-31T12:57:10Z</time>
      </trkpt>
      <trkpt lat="43.83063" lon="7.24854">
        <ele>532.707764</ele>
        <time>2009-05-31T12:57:36Z</time>
      </trkpt>
      <trkpt lat="43.83023" lon="7.24889">
        <ele>530.304443</ele>
        <time>2009-05-31T12:57:45Z</time>
      </trkpt>
      <trkpt lat="43.8298" lon="7.24861">
        <ele>532.707764</ele>
        <time>2009-05-31T12:57:57Z</time>
      </trkpt>
      <trkpt lat="43.82922" lon="7.24872">
        <ele>535.591553</ele>
        <time>2009-05-31T12:58:17Z</time>
      </trkpt>
      <trkpt lat="43.82843" lon="7.24971">
        <ele>531.746338</ele>
        <time>2009-05-31T12:58:39Z</time>
      </trkpt>
      <trkpt lat="43.82745" lon="7.2496">
        <ele>522.613892</ele>
        <time>2009-05-31T13:05:27Z</time>
      </trkpt>
      <trkpt lat="43.82548" lon="7.25146">
        <ele>551.934082</ele>
        <time>2009-05-31T13:08:57Z</time>
      </trkpt>
      <trkpt lat="43.82281" lon="7.25316">
        <ele>564.911865</ele>
        <time>2009-05-31T13:11:28Z</time>
      </trkpt>
      <trkpt lat="43.82223" lon="7.25383">
        <ele>563.469971</ele>
        <time>2009-05-31T13:11:45Z</time>
      </trkpt>
      <trkpt lat="43.82033" lon="7.25531">
        <ele>563.469971</ele>
        <time>2009-05-31T13:12:37Z</time>
      </trkpt>
      <trkpt lat="43.81962" lon="7.25611">
        <ele>566.834473</ele>
        <time>2009-05-31T13:13:08Z</time>
      </trkpt>
      <trkpt lat="43.81924" lon="7.25695">
        <ele>574.525147</ele>
        <time>2009-05-31T13:13:46Z</time>
      </trkpt>
      <trkpt lat="43.81873" lon="7.25761">
        <ele>581.254394</ele>
        <time>2009-05-31T13:14:27Z</time>
      </trkpt>
      <trkpt lat="43.81839" lon="7.25761">
        <ele>583.657471</ele>
        <time>2009-05-31T13:14:46Z</time>
      </trkpt>
      <trkpt lat="43.81814" lon="7.25742">
        <ele>587.021973</ele>
        <time>2009-05-31T13:15:03Z</time>
      </trkpt>
      <trkpt lat="43.81791" lon="7.25692">
        <ele>589.90625</ele>
        <time>2009-05-31T13:15:27Z</time>
      </trkpt>
      <trkpt lat="43.81759" lon="7.25525">
        <ele>601.922607</ele>
        <time>2009-05-31T13:16:39Z</time>
      </trkpt>
      <trkpt lat="43.81712" lon="7.2547">
        <ele>606.729248</ele>
        <time>2009-05-31T13:17:16Z</time>
      </trkpt>
      <trkpt lat="43.81598" lon="7.25423">
        <ele>608.171387</ele>
        <time>2009-05-31T13:17:53Z</time>
      </trkpt>
      <trkpt lat="43.81564" lon="7.25468">
        <ele>606.729248</ele>
        <time>2009-05-31T13:18:04Z</time>
      </trkpt>
      <trkpt lat="43.81524" lon="7.25581">
        <ele>606.248535</ele>
        <time>2009-05-31T13:18:27Z</time>
      </trkpt>
      <trkpt lat="43.81472" lon="7.25646">
        <ele>605.768066</ele>
        <time>2009-05-31T13:18:44Z</time>
      </trkpt>
      <trkpt lat="43.81408" lon="7.25801">
        <ele>597.59668</ele>
        <time>2009-05-31T13:19:19Z</time>
      </trkpt>
      <trkpt lat="43.81286" lon="7.25831">
        <ele>561.547363</ele>
        <time>2009-05-31T13:19:54Z</time>
      </trkpt>
      <trkpt lat="43.81162" lon="7.2598">
        <ele>515.404053</ele>
        <time>2009-05-31T13:20:49Z</time>
      </trkpt>
      <trkpt lat="43.81102" lon="7.25988">
        <ele>512.039429</ele>
        <time>2009-05-31T13:21:20Z</time>
      </trkpt>
      <trkpt lat="43.81099" lon="7.26018">
        <ele>507.232788</ele>
        <time>2009-05-31T13:21:27Z</time>
      </trkpt>
      <trkpt lat="43.8096" lon="7.26166">
        <ele>497.138916</ele>
        <time>2009-05-31T13:22:15Z</time>
      </trkpt>
      <trkpt lat="43.80907" lon="7.26188">
        <ele>495.216186</ele>
        <time>2009-05-31T13:22:29Z</time>
      </trkpt>
      <trkpt lat="43.80819" lon="7.26177">
        <ele>476.951294</ele>
        <time>2009-05-31T13:22:51Z</time>
      </trkpt>
      <trkpt lat="43.80799" lon="7.2615">
        <ele>470.221924</ele>
        <time>2009-05-31T13:23:00Z</time>
      </trkpt>
      <trkpt lat="43.80761" lon="7.26175">
        <ele>460.608765</ele>
        <time>2009-05-31T13:23:23Z</time>
      </trkpt>
      <trkpt lat="43.80728" lon="7.26243">
        <ele>456.282959</ele>
        <time>2009-05-31T13:23:44Z</time>
      </trkpt>
      <trkpt lat="43.80642" lon="7.26261">
        <ele>445.708374</ele>
        <time>2009-05-31T13:24:20Z</time>
      </trkpt>
      <trkpt lat="43.806" lon="7.26219">
        <ele>439.94043</ele>
        <time>2009-05-31T13:24:43Z</time>
      </trkpt>
      <trkpt lat="43.80546" lon="7.26237">
        <ele>445.227661</ele>
        <time>2009-05-31T13:25:24Z</time>
      </trkpt>
      <trkpt lat="43.80506" lon="7.26212">
        <ele>444.74707</ele>
        <time>2009-05-31T13:25:49Z</time>
      </trkpt>
      <trkpt lat="43.80485" lon="7.26174">
        <ele>438.979126</ele>
        <time>2009-05-31T13:26:00Z</time>
      </trkpt>
      <trkpt lat="43.80415" lon="7.26161">
        <ele>436.095215</ele>
        <time>2009-05-31T13:27:12Z</time>
      </trkpt>
      <trkpt lat="43.80373" lon="7.2611">
        <ele>443.305054</ele>
        <time>2009-05-31T13:27:58Z</time>
      </trkpt>
      <trkpt lat="43.80324" lon="7.26087">
        <ele>447.630981</ele>
        <time>2009-05-31T13:28:37Z</time>
      </trkpt>
      <trkpt lat="43.80312" lon="7.26062">
        <ele>450.515015</ele>
        <time>2009-05-31T13:29:18Z</time>
      </trkpt>
      <trkpt lat="43.80277" lon="7.26053">
        <ele>455.321533</ele>
        <time>2009-05-31T13:29:51Z</time>
      </trkpt>
      <trkpt lat="43.80191" lon="7.25981">
        <ele>475.028686</ele>
        <time>2009-05-31T13:32:02Z</time>
      </trkpt>
      <trkpt lat="43.80185" lon="7.25953">
        <ele>476.951294</ele>
        <time>2009-05-31T13:32:23Z</time>
      </trkpt>
      <trkpt lat="43.80125" lon="7.25927">
        <ele>478.873901</ele>
        <time>2009-05-31T13:33:11Z</time>
      </trkpt>
      <trkpt lat="43.80115" lon="7.25854">
        <ele>487.525635</ele>
        <time>2009-05-31T13:34:16Z</time>
      </trkpt>
      <trkpt lat="43.80094" lon="7.25831">
        <ele>482.238525</ele>
        <time>2009-05-31T13:34:32Z</time>
      </trkpt>
      <trkpt lat="43.80033" lon="7.25897">
        <ele>484.161133</ele>
        <time>2009-05-31T13:35:18Z</time>
      </trkpt>
      <trkpt lat="43.7998" lon="7.25852">
        <ele>472.144653</ele>
        <time>2009-05-31T13:35:35Z</time>
      </trkpt>
      <trkpt lat="43.79961" lon="7.25973">
        <ele>488.487183</ele>
        <time>2009-05-31T13:37:18Z</time>
      </trkpt>
      <trkpt lat="43.79818" lon="7.26142">
        <ele>471.18335</ele>
        <time>2009-05-31T13:38:15Z</time>
      </trkpt>
      <trkpt lat="43.79775" lon="7.26106">
        <ele>467.818726</ele>
        <time>2009-05-31T13:38:28Z</time>
      </trkpt>
      <trkpt lat="43.7971" lon="7.25933">
        <ele>472.625366</ele>
        <time>2009-05-31T13:39:16Z</time>
      </trkpt>
      <trkpt lat="43.79706" lon="7.25868">
        <ele>472.625366</ele>
        <time>2009-05-31T13:39:31Z</time>
      </trkpt>
      <trkpt lat="43.7975" lon="7.25673">
        <ele>477.912476</ele>
        <time>2009-05-31T13:40:22Z</time>
      </trkpt>
      <trkpt lat="43.79729" lon="7.25614">
        <ele>479.835083</ele>
        <time>2009-05-31T13:40:38Z</time>
      </trkpt>
      <trkpt lat="43.79693" lon="7.25606">
        <ele>479.354492</ele>
        <time>2009-05-31T13:40:52Z</time>
      </trkpt>
      <trkpt lat="43.79619" lon="7.25667">
        <ele>482.719238</ele>
        <time>2009-05-31T13:41:20Z</time>
      </trkpt>
      <trkpt lat="43.79575" lon="7.25662">
        <ele>483.68042</ele>
        <time>2009-05-31T13:41:35Z</time>
      </trkpt>
      <trkpt lat="43.79518" lon="7.25534">
        <ele>487.045044</ele>
        <time>2009-05-31T13:42:12Z</time>
      </trkpt>
      <trkpt lat="43.79424" lon="7.25554">
        <ele>489.448364</ele>
        <time>2009-05-31T13:42:46Z</time>
      </trkpt>
      <trkpt lat="43.79347" lon="7.25505">
        <ele>491.370972</ele>
        <time>2009-05-31T13:43:14Z</time>
      </trkpt>
      <trkpt lat="43.79315" lon="7.25457">
        <ele>492.332398</ele>
        <time>2009-05-31T13:43:30Z</time>
      </trkpt>
      <trkpt lat="43.79308" lon="7.25354">
        <ele>495.216186</ele>
        <time>2009-05-31T13:43:55Z</time>
      </trkpt>
      <trkpt lat="43.7927" lon="7.25305">
        <ele>498.100342</ele>
        <time>2009-05-31T13:44:13Z</time>
      </trkpt>
      <trkpt lat="43.79158" lon="7.25355">
        <ele>500.984131</ele>
        <time>2009-05-31T13:44:53Z</time>
      </trkpt>
      <trkpt lat="43.79015" lon="7.25384">
        <ele>504.348877</ele>
        <time>2009-05-31T13:45:40Z</time>
      </trkpt>
      <trkpt lat="43.78938" lon="7.25349">
        <ele>507.232788</ele>
        <time>2009-05-31T13:46:07Z</time>
      </trkpt>
      <trkpt lat="43.78916" lon="7.25273">
        <ele>509.155396</ele>
        <time>2009-05-31T13:46:26Z</time>
      </trkpt>
      <trkpt lat="43.78882" lon="7.25242">
        <ele>509.636108</ele>
        <time>2009-05-31T13:46:40Z</time>
      </trkpt>
      <trkpt lat="43.78791" lon="7.2521">
        <ele>514.442627</ele>
        <time>2009-05-31T13:47:13Z</time>
      </trkpt>
      <trkpt lat="43.78705" lon="7.25262">
        <ele>517.807251</ele>
        <time>2009-05-31T13:47:45Z</time>
      </trkpt>
      <trkpt lat="43.78535" lon="7.25262">
        <ele>523.094604</ele>
        <time>2009-05-31T13:48:41Z</time>
      </trkpt>
      <trkpt lat="43.78364" lon="7.25323">
        <ele>528.381836</ele>
        <time>2009-05-31T13:49:40Z</time>
      </trkpt>
      <trkpt lat="43.78273" lon="7.25395">
        <ele>531.265747</ele>
        <time>2009-05-31T13:50:15Z</time>
      </trkpt>
      <trkpt lat="43.7824" lon="7.254">
        <ele>533.668945</ele>
        <time>2009-05-31T13:50:26Z</time>
      </trkpt>
      <trkpt lat="43.78224" lon="7.25382">
        <ele>533.188354</ele>
        <time>2009-05-31T13:50:33Z</time>
      </trkpt>
      <trkpt lat="43.78196" lon="7.25283">
        <ele>536.072388</ele>
        <time>2009-05-31T13:51:00Z</time>
      </trkpt>
      <trkpt lat="43.78152" lon="7.25237">
        <ele>541.84021</ele>
        <time>2009-05-31T13:51:26Z</time>
      </trkpt>
      <trkpt lat="43.78029" lon="7.25343">
        <ele>565.392578</ele>
        <time>2009-05-31T13:54:34Z</time>
      </trkpt>
      <trkpt lat="43.77953" lon="7.25438">
        <ele>573.083252</ele>
        <time>2009-05-31T13:56:23Z</time>
      </trkpt>
      <trkpt lat="43.77946" lon="7.25484">
        <ele>579.331543</ele>
        <time>2009-05-31T13:57:07Z</time>
      </trkpt>
      <trkpt lat="43.77881" lon="7.25578">
        <ele>602.403076</ele>
        <time>2009-05-31T14:00:06Z</time>
      </trkpt>
      <trkpt lat="43.77888" lon="7.25593">
        <ele>606.729248</ele>
        <time>2009-05-31T14:00:34Z</time>
      </trkpt>
      <trkpt lat="43.77868" lon="7.25589">
        <ele>612.49707</ele>
        <time>2009-05-31T14:01:07Z</time>
      </trkpt>
      <trkpt lat="43.77867" lon="7.25633">
        <ele>619.226318</ele>
        <time>2009-05-31T14:02:08Z</time>
      </trkpt>
      <trkpt lat="43.77816" lon="7.25615">
        <ele>634.126709</ele>
        <time>2009-05-31T14:03:56Z</time>
      </trkpt>
      <trkpt lat="43.77808" lon="7.25631">
        <ele>637.972168</ele>
        <time>2009-05-31T14:04:22Z</time>
      </trkpt>
      <trkpt lat="43.77803" lon="7.25604">
        <ele>642.298096</ele>
        <time>2009-05-31T14:04:51Z</time>
      </trkpt>
      <trkpt lat="43.77786" lon="7.25636">
        <ele>648.065918</ele>
        <time>2009-05-31T14:05:41Z</time>
      </trkpt>
      <trkpt lat="43.77781" lon="7.25622">
        <ele>651.43042</ele>
        <time>2009-05-31T14:06:03Z</time>
      </trkpt>
      <trkpt lat="43.77727" lon="7.25707">
        <ele>672.57959</ele>
        <time>2009-05-31T14:13:59Z</time>
      </trkpt>
      <trkpt lat="43.7772" lon="7.25783">
        <ele>682.67334</ele>
        <time>2009-05-31T14:15:20Z</time>
      </trkpt>
      <trkpt lat="43.77702" lon="7.25825">
        <ele>686.038086</ele>
        <time>2009-05-31T14:16:06Z</time>
      </trkpt>
      <trkpt lat="43.77573" lon="7.25991">
        <ele>715.358154</ele>
        <time>2009-05-31T14:20:11Z</time>
      </trkpt>
      <trkpt lat="43.77523" lon="7.26025">
        <ele>722.087402</ele>
        <time>2009-05-31T14:21:18Z</time>
      </trkpt>
      <trkpt lat="43.77569" lon="7.25927">
        <ele>723.529541</ele>
        <time>2009-05-31T14:22:39Z</time>
      </trkpt>
      <trkpt lat="43.77574" lon="7.2581">
        <ele>727.855225</ele>
        <time>2009-05-31T14:23:17Z</time>
      </trkpt>
      <trkpt lat="43.77548" lon="7.25794">
        <ele>729.297119</ele>
        <time>2009-05-31T14:23:33Z</time>
      </trkpt>
      <trkpt lat="43.77338" lon="7.2588">
        <ele>719.684326</ele>
        <time>2009-05-31T14:25:04Z</time>
      </trkpt>
      <trkpt lat="43.77243" lon="7.25943">
        <ele>709.109619</ele>
        <time>2009-05-31T14:25:27Z</time>
      </trkpt>
      <trkpt lat="43.77195" lon="7.25937">
        <ele>708.628906</ele>
        <time>2009-05-31T14:25:42Z</time>
      </trkpt>
      <trkpt lat="43.77237" lon="7.25958">
        <ele>706.225586</ele>
        <time>2009-05-31T14:26:19Z</time>
      </trkpt>
      <trkpt lat="43.77148" lon="7.25914">
        <ele>710.551514</ele>
        <time>2009-05-31T14:27:37Z</time>
      </trkpt>
      <trkpt lat="43.77024" lon="7.25929">
        <ele>719.684326</ele>
        <time>2009-05-31T14:28:27Z</time>
      </trkpt>
      <trkpt lat="43.76987" lon="7.25919">
        <ele>722.087402</ele>
        <time>2009-05-31T14:28:42Z</time>
      </trkpt>
      <trkpt lat="43.76886" lon="7.25728">
        <ele>736.026611</ele>
        <time>2009-05-31T14:30:12Z</time>
      </trkpt>
      <trkpt lat="43.76847" lon="7.25621">
        <ele>747.081543</ele>
        <time>2009-05-31T14:31:10Z</time>
      </trkpt>
      <trkpt lat="43.76862" lon="7.25524">
        <ele>754.291748</ele>
        <time>2009-05-31T14:32:25Z</time>
      </trkpt>
      <trkpt lat="43.76855" lon="7.25577">
        <ele>760.059326</ele>
        <time>2009-05-31T14:34:50Z</time>
      </trkpt>
      <trkpt lat="43.76932" lon="7.25703">
        <ele>772.556641</ele>
        <time>2009-05-31T14:36:07Z</time>
      </trkpt>
      <trkpt lat="43.76896" lon="7.25578">
        <ele>783.611816</ele>
        <time>2009-05-31T14:37:14Z</time>
      </trkpt>
      <trkpt lat="43.76968" lon="7.25674">
        <ele>795.147461</ele>
        <time>2009-05-31T14:38:21Z</time>
      </trkpt>
      <trkpt lat="43.76932" lon="7.25564">
        <ele>801.876953</ele>
        <time>2009-05-31T14:39:17Z</time>
      </trkpt>
      <trkpt lat="43.76987" lon="7.2563">
        <ele>811.970703</ele>
        <time>2009-05-31T14:40:11Z</time>
      </trkpt>
      <trkpt lat="43.76959" lon="7.25535">
        <ele>818.699951</ele>
        <time>2009-05-31T14:41:00Z</time>
      </trkpt>
      <trkpt lat="43.76979" lon="7.25449">
        <ele>822.545166</ele>
        <time>2009-05-31T14:41:33Z</time>
      </trkpt>
      <trkpt lat="43.7702" lon="7.25378">
        <ele>829.755127</ele>
        <time>2009-05-31T14:42:16Z</time>
      </trkpt>
      <trkpt lat="43.76988" lon="7.25485">
        <ele>838.887695</ele>
        <time>2009-05-31T14:43:13Z</time>
      </trkpt>
      <trkpt lat="43.77006" lon="7.25453">
        <ele>842.252197</ele>
        <time>2009-05-31T14:43:39Z</time>
      </trkpt>
      <trkpt lat="43.7702" lon="7.25471">
        <ele>844.175049</ele>
        <time>2009-05-31T14:43:55Z</time>
      </trkpt>
      <trkpt lat="43.77018" lon="7.25403">
        <ele>836.003662</ele>
        <time>2009-05-31T14:44:17Z</time>
      </trkpt>
      <trkpt lat="43.77032" lon="7.25466">
        <ele>841.290772</ele>
        <time>2009-05-31T14:45:12Z</time>
      </trkpt>
      <trkpt lat="43.77019" lon="7.25553">
        <ele>829.274414</ele>
        <time>2009-05-31T14:45:35Z</time>
      </trkpt>
      <trkpt lat="43.77105" lon="7.25494">
        <ele>829.274414</ele>
        <time>2009-05-31T14:46:16Z</time>
      </trkpt>
      <trkpt lat="43.77159" lon="7.25495">
        <ele>838.887695</ele>
        <time>2009-05-31T14:47:51Z</time>
      </trkpt>
      <trkpt lat="43.77279" lon="7.25391">
        <ele>825.428955</ele>
        <time>2009-05-31T14:48:40Z</time>
      </trkpt>
      <trkpt lat="43.77317" lon="7.25396">
        <ele>823.506592</ele>
        <time>2009-05-31T14:48:55Z</time>
      </trkpt>
      <trkpt lat="43.77517" lon="7.25318">
        <ele>787.937744</ele>
        <time>2009-05-31T14:50:14Z</time>
      </trkpt>
      <trkpt lat="43.77528" lon="7.253">
        <ele>785.534424</ele>
        <time>2009-05-31T14:50:18Z</time>
      </trkpt>
      <trkpt lat="43.77586" lon="7.25278">
        <ele>770.634033</ele>
        <time>2009-05-31T14:50:39Z</time>
      </trkpt>
      <trkpt lat="43.77603" lon="7.25243">
        <ele>760.540039</ele>
        <time>2009-05-31T14:50:53Z</time>
      </trkpt>
      <trkpt lat="43.77596" lon="7.25198">
        <ele>750.446533</ele>
        <time>2009-05-31T14:51:08Z</time>
      </trkpt>
      <trkpt lat="43.77624" lon="7.25171">
        <ele>738.429932</ele>
        <time>2009-05-31T14:51:21Z</time>
      </trkpt>
      <trkpt lat="43.77625" lon="7.25136">
        <ele>730.739258</ele>
        <time>2009-05-31T14:51:32Z</time>
      </trkpt>
      <trkpt lat="43.77654" lon="7.25129">
        <ele>723.529541</ele>
        <time>2009-05-31T14:51:45Z</time>
      </trkpt>
      <trkpt lat="43.7765" lon="7.2512">
        <ele>722.087402</ele>
        <time>2009-05-31T14:51:48Z</time>
      </trkpt>
      <trkpt lat="43.77714" lon="7.25077">
        <ele>708.628906</ele>
        <time>2009-05-31T14:52:08Z</time>
      </trkpt>
      <trkpt lat="43.77753" lon="7.24994">
        <ele>695.17041</ele>
        <time>2009-05-31T14:52:29Z</time>
      </trkpt>
      <trkpt lat="43.77788" lon="7.24972">
        <ele>686.038086</ele>
        <time>2009-05-31T14:52:45Z</time>
      </trkpt>
      <trkpt lat="43.77786" lon="7.24954">
        <ele>678.828125</ele>
        <time>2009-05-31T14:52:52Z</time>
      </trkpt>
      <trkpt lat="43.77821" lon="7.24932">
        <ele>661.524414</ele>
        <time>2009-05-31T14:53:13Z</time>
      </trkpt>
      <trkpt lat="43.77777" lon="7.24898">
        <ele>660.562988</ele>
        <time>2009-05-31T14:53:29Z</time>
      </trkpt>
      <trkpt lat="43.77699" lon="7.24922">
        <ele>661.043701</ele>
        <time>2009-05-31T14:53:57Z</time>
      </trkpt>
      <trkpt lat="43.77663" lon="7.24905">
        <ele>661.043701</ele>
        <time>2009-05-31T14:54:09Z</time>
      </trkpt>
      <trkpt lat="43.77219" lon="7.24984">
        <ele>688.922119</ele>
        <time>2009-05-31T14:58:58Z</time>
      </trkpt>
      <trkpt lat="43.77083" lon="7.24992">
        <ele>689.402588</ele>
        <time>2009-05-31T14:59:51Z</time>
      </trkpt>
      <trkpt lat="43.77035" lon="7.24964">
        <ele>690.364014</ele>
        <time>2009-05-31T15:00:15Z</time>
      </trkpt>
      <trkpt lat="43.76847" lon="7.25049">
        <ele>675.944092</ele>
        <time>2009-05-31T15:01:15Z</time>
      </trkpt>
      <trkpt lat="43.76791" lon="7.2503">
        <ele>672.57959</ele>
        <time>2009-05-31T15:01:29Z</time>
      </trkpt>
      <trkpt lat="43.76735" lon="7.25054">
        <ele>664.888916</ele>
        <time>2009-05-31T15:01:42Z</time>
      </trkpt>
      <trkpt lat="43.76683" lon="7.25053">
        <ele>659.601807</ele>
        <time>2009-05-31T15:01:57Z</time>
      </trkpt>
      <trkpt lat="43.76668" lon="7.25085">
        <ele>653.833984</ele>
        <time>2009-05-31T15:02:03Z</time>
      </trkpt>
      <trkpt lat="43.76538" lon="7.25129">
        <ele>639.414063</ele>
        <time>2009-05-31T15:02:32Z</time>
      </trkpt>
      <trkpt lat="43.76476" lon="7.25111">
        <ele>633.165283</ele>
        <time>2009-05-31T15:02:47Z</time>
      </trkpt>
      <trkpt lat="43.76397" lon="7.2514">
        <ele>623.071777</ele>
        <time>2009-05-31T15:03:14Z</time>
      </trkpt>
      <trkpt lat="43.76345" lon="7.25198">
        <ele>618.745606</ele>
        <time>2009-05-31T15:03:31Z</time>
      </trkpt>
      <trkpt lat="43.76213" lon="7.25213">
        <ele>602.403076</ele>
        <time>2009-05-31T15:04:05Z</time>
      </trkpt>
      <trkpt lat="43.7593" lon="7.25368">
        <ele>568.75708</ele>
        <time>2009-05-31T15:05:34Z</time>
      </trkpt>
      <trkpt lat="43.75865" lon="7.25425">
        <ele>563.95044</ele>
        <time>2009-05-31T15:05:55Z</time>
      </trkpt>
      <trkpt lat="43.75549" lon="7.256">
        <ele>524.536499</ele>
        <time>2009-05-31T15:07:32Z</time>
      </trkpt>
      <trkpt lat="43.75521" lon="7.2571">
        <ele>513.481445</ele>
        <time>2009-05-31T15:07:52Z</time>
      </trkpt>
      <trkpt lat="43.75499" lon="7.25727">
        <ele>507.713501</ele>
        <time>2009-05-31T15:08:00Z</time>
      </trkpt>
      <trkpt lat="43.75483" lon="7.25775">
        <ele>505.790894</ele>
        <time>2009-05-31T15:08:07Z</time>
      </trkpt>
      <trkpt lat="43.75411" lon="7.25808">
        <ele>505.790894</ele>
        <time>2009-05-31T15:08:28Z</time>
      </trkpt>
      <trkpt lat="43.75349" lon="7.25786">
        <ele>502.906738</ele>
        <time>2009-05-31T15:08:52Z</time>
      </trkpt>
      <trkpt lat="43.75252" lon="7.25854">
        <ele>500.022949</ele>
        <time>2009-05-31T15:09:26Z</time>
      </trkpt>
      <trkpt lat="43.75097" lon="7.25876">
        <ele>487.045044</ele>
        <time>2009-05-31T15:10:01Z</time>
      </trkpt>
      <trkpt lat="43.74964" lon="7.25842">
        <ele>477.912476</ele>
        <time>2009-05-31T15:10:37Z</time>
      </trkpt>
      <trkpt lat="43.74771" lon="7.25846">
        <ele>475.509277</ele>
        <time>2009-05-31T15:11:31Z</time>
      </trkpt>
      <trkpt lat="43.74711" lon="7.25892">
        <ele>465.896118</ele>
        <time>2009-05-31T15:11:51Z</time>
      </trkpt>
      <trkpt lat="43.74685" lon="7.25895">
        <ele>460.128174</ele>
        <time>2009-05-31T15:12:02Z</time>
      </trkpt>
      <trkpt lat="43.74655" lon="7.25848">
        <ele>455.321533</ele>
        <time>2009-05-31T15:12:16Z</time>
      </trkpt>
      <trkpt lat="43.74602" lon="7.25875">
        <ele>451.476318</ele>
        <time>2009-05-31T15:12:31Z</time>
      </trkpt>
      <trkpt lat="43.74552" lon="7.2587">
        <ele>437.537109</ele>
        <time>2009-05-31T15:12:51Z</time>
      </trkpt>
      <trkpt lat="43.74546" lon="7.25925">
        <ele>425.520752</ele>
        <time>2009-05-31T15:13:11Z</time>
      </trkpt>
      <trkpt lat="43.74518" lon="7.25947">
        <ele>412.062256</ele>
        <time>2009-05-31T15:13:29Z</time>
      </trkpt>
      <trkpt lat="43.74443" lon="7.25965">
        <ele>389.471191</ele>
        <time>2009-05-31T15:14:02Z</time>
      </trkpt>
      <trkpt lat="43.74482" lon="7.26059">
        <ele>377.935425</ele>
        <time>2009-05-31T15:14:22Z</time>
      </trkpt>
      <trkpt lat="43.74568" lon="7.26169">
        <ele>359.189697</ele>
        <time>2009-05-31T15:14:44Z</time>
      </trkpt>
      <trkpt lat="43.74543" lon="7.26212">
        <ele>347.173218</ele>
        <time>2009-05-31T15:15:22Z</time>
      </trkpt>
      <trkpt lat="43.74587" lon="7.26284">
        <ele>338.521484</ele>
        <time>2009-05-31T15:15:46Z</time>
      </trkpt>
      <trkpt lat="43.74646" lon="7.26289">
        <ele>334.195435</ele>
        <time>2009-05-31T15:15:58Z</time>
      </trkpt>
      <trkpt lat="43.74626" lon="7.26324">
        <ele>326.02417</ele>
        <time>2009-05-31T15:16:06Z</time>
      </trkpt>
      <trkpt lat="43.74653" lon="7.26332">
        <ele>322.659668</ele>
        <time>2009-05-31T15:16:11Z</time>
      </trkpt>
      <trkpt lat="43.74642" lon="7.26361">
        <ele>316.411011</ele>
        <time>2009-05-31T15:16:17Z</time>
      </trkpt>
      <trkpt lat="43.74694" lon="7.26383">
        <ele>316.411011</ele>
        <time>2009-05-31T15:16:32Z</time>
      </trkpt>
      <trkpt lat="43.74761" lon="7.2638">
        <ele>316.411011</ele>
        <time>2009-05-31T15:16:46Z</time>
      </trkpt>
      <trkpt lat="43.74897" lon="7.26426">
        <ele>318.814331</ele>
        <time>2009-05-31T15:17:17Z</time>
      </trkpt>
      <trkpt lat="43.74938" lon="7.26488">
        <ele>316.891724</ele>
        <time>2009-05-31T15:17:28Z</time>
      </trkpt>
      <trkpt lat="43.74992" lon="7.26535">
        <ele>315.93042</ele>
        <time>2009-05-31T15:17:38Z</time>
      </trkpt>
      <trkpt lat="43.75046" lon="7.2655">
        <ele>309.201172</ele>
        <time>2009-05-31T15:17:55Z</time>
      </trkpt>
      <trkpt lat="43.7496" lon="7.26666">
        <ele>280.361694</ele>
        <time>2009-05-31T15:19:02Z</time>
      </trkpt>
      <trkpt lat="43.74907" lon="7.26783">
        <ele>234.218384</ele>
        <time>2009-05-31T15:19:39Z</time>
      </trkpt>
      <trkpt lat="43.7486" lon="7.26834">
        <ele>205.378784</ele>
        <time>2009-05-31T15:20:03Z</time>
      </trkpt>
      <trkpt lat="43.74823" lon="7.27132">
        <ele>176.058594</ele>
        <time>2009-05-31T15:21:25Z</time>
      </trkpt>
      <trkpt lat="43.74794" lon="7.27209">
        <ele>173.174683</ele>
        <time>2009-05-31T15:21:45Z</time>
      </trkpt>
      <trkpt lat="43.74689" lon="7.2733">
        <ele>187.59436</ele>
        <time>2009-05-31T15:24:42Z</time>
      </trkpt>
      <trkpt lat="43.74703" lon="7.27357">
        <ele>187.113769</ele>
        <time>2009-05-31T15:25:15Z</time>
      </trkpt>
      <trkpt lat="43.74656" lon="7.27471">
        <ele>192.401123</ele>
        <time>2009-05-31T15:26:53Z</time>
      </trkpt>
      <trkpt lat="43.74597" lon="7.27564">
        <ele>194.804321</ele>
        <time>2009-05-31T15:27:32Z</time>
      </trkpt>
      <trkpt lat="43.74573" lon="7.27629">
        <ele>194.804321</ele>
        <time>2009-05-31T15:28:03Z</time>
      </trkpt>
      <trkpt lat="43.74547" lon="7.27645">
        <ele>196.246338</ele>
        <time>2009-05-31T15:28:14Z</time>
      </trkpt>
      <trkpt lat="43.74524" lon="7.27629">
        <ele>198.168945</ele>
        <time>2009-05-31T15:28:26Z</time>
      </trkpt>
      <trkpt lat="43.74477" lon="7.27646">
        <ele>201.533569</ele>
        <time>2009-05-31T15:28:46Z</time>
      </trkpt>
      <trkpt lat="43.74471" lon="7.27691">
        <ele>206.340088</ele>
        <time>2009-05-31T15:29:05Z</time>
      </trkpt>
      <trkpt lat="43.74443" lon="7.2773">
        <ele>211.627441</ele>
        <time>2009-05-31T15:29:28Z</time>
      </trkpt>
      <trkpt lat="43.74443" lon="7.27778">
        <ele>201.052856</ele>
        <time>2009-05-31T15:29:42Z</time>
      </trkpt>
      <trkpt lat="43.74462" lon="7.27845">
        <ele>184.229858</ele>
        <time>2009-05-31T15:30:08Z</time>
      </trkpt>
      <trkpt lat="43.74445" lon="7.27872">
        <ele>183.749023</ele>
        <time>2009-05-31T15:30:22Z</time>
      </trkpt>
      <trkpt lat="43.74394" lon="7.27865">
        <ele>180.384522</ele>
        <time>2009-05-31T15:31:03Z</time>
      </trkpt>
      <trkpt lat="43.74334" lon="7.27951">
        <ele>172.69397</ele>
        <time>2009-05-31T15:32:37Z</time>
      </trkpt>
      <trkpt lat="43.74342" lon="7.28005">
        <ele>157.312866</ele>
        <time>2009-05-31T15:33:28Z</time>
      </trkpt>
      <trkpt lat="43.74297" lon="7.28082">
        <ele>165.964722</ele>
        <time>2009-05-31T15:34:13Z</time>
      </trkpt>
      <trkpt lat="43.74298" lon="7.28117">
        <ele>165.484131</ele>
        <time>2009-05-31T15:34:32Z</time>
      </trkpt>
      <trkpt lat="43.74209" lon="7.2832">
        <ele>142.412476</ele>
        <time>2009-05-31T15:35:17Z</time>
      </trkpt>
      <trkpt lat="43.74167" lon="7.28363">
        <ele>138.567261</ele>
        <time>2009-05-31T15:35:27Z</time>
      </trkpt>
      <trkpt lat="43.7417" lon="7.28399">
        <ele>133.279907</ele>
        <time>2009-05-31T15:35:36Z</time>
      </trkpt>
      <trkpt lat="43.74119" lon="7.28526">
        <ele>116.9375</ele>
        <time>2009-05-31T15:36:04Z</time>
      </trkpt>
      <trkpt lat="43.74065" lon="7.2854">
        <ele>102.5177</ele>
        <time>2009-05-31T15:36:25Z</time>
      </trkpt>
      <trkpt lat="43.74068" lon="7.28566">
        <ele>95.307739</ele>
        <time>2009-05-31T15:36:33Z</time>
      </trkpt>
      <trkpt lat="43.74058" lon="7.28579">
        <ele>89.059326</ele>
        <time>2009-05-31T15:36:42Z</time>
      </trkpt>
      <trkpt lat="43.74071" lon="7.28595">
        <ele>83.771973</ele>
        <time>2009-05-31T15:36:56Z</time>
      </trkpt>
      <trkpt lat="43.73995" lon="7.28708">
        <ele>69.352295</ele>
        <time>2009-05-31T15:37:19Z</time>
      </trkpt>
      <trkpt lat="43.73934" lon="7.28743">
        <ele>68.390869</ele>
        <time>2009-05-31T15:37:33Z</time>
      </trkpt>
      <trkpt lat="43.73828" lon="7.28709">
        <ele>66.468262</ele>
        <time>2009-05-31T15:37:49Z</time>
      </trkpt>
      <trkpt lat="43.7369" lon="7.28712">
        <ele>63.584351</ele>
        <time>2009-05-31T15:38:10Z</time>
      </trkpt>
      <trkpt lat="43.73571" lon="7.2878">
        <ele>63.584351</ele>
        <time>2009-05-31T15:38:28Z</time>
      </trkpt>
      <trkpt lat="43.73514" lon="7.28793">
        <ele>62.622925</ele>
        <time>2009-05-31T15:38:38Z</time>
      </trkpt>
      <trkpt lat="43.73465" lon="7.2877">
        <ele>61.18103</ele>
        <time>2009-05-31T15:38:47Z</time>
      </trkpt>
      <trkpt lat="43.73435" lon="7.28729">
        <ele>58.297119</ele>
        <time>2009-05-31T15:38:56Z</time>
      </trkpt>
      <trkpt lat="43.73404" lon="7.28621">
        <ele>57.816528</ele>
        <time>2009-05-31T15:39:34Z</time>
      </trkpt>
      <trkpt lat="43.7336" lon="7.28539">
        <ele>55.413086</ele>
        <time>2009-05-31T15:40:25Z</time>
      </trkpt>
      <trkpt lat="43.73314" lon="7.28508">
        <ele>54.451782</ele>
        <time>2009-05-31T15:40:45Z</time>
      </trkpt>
      <trkpt lat="43.73199" lon="7.28492">
        <ele>51.567871</ele>
        <time>2009-05-31T15:41:47Z</time>
      </trkpt>
      <trkpt lat="43.73141" lon="7.28461">
        <ele>50.125977</ele>
        <time>2009-05-31T15:42:09Z</time>
      </trkpt>
      <trkpt lat="43.72995" lon="7.28316">
        <ele>47.241821</ele>
        <time>2009-05-31T15:43:09Z</time>
      </trkpt>
      <trkpt lat="43.72907" lon="7.28278">
        <ele>45.799927</ele>
        <time>2009-05-31T15:44:01Z</time>
      </trkpt>
      <trkpt lat="43.72803" lon="7.28289">
        <ele>46.28064</ele>
        <time>2009-05-31T15:44:54Z</time>
      </trkpt>
      <trkpt lat="43.72657" lon="7.28451">
        <ele>43.877319</ele>
        <time>2009-05-31T15:46:52Z</time>
      </trkpt>
      <trkpt lat="43.72603" lon="7.28535">
        <ele>43.396606</ele>
        <time>2009-05-31T15:47:43Z</time>
      </trkpt>
      <trkpt lat="43.72568" lon="7.28643">
        <ele>41.473999</ele>
        <time>2009-05-31T15:48:16Z</time>
      </trkpt>
      <trkpt lat="43.72509" lon="7.28732">
        <ele>40.512817</ele>
        <time>2009-05-31T15:48:46Z</time>
      </trkpt>
      <trkpt lat="43.72421" lon="7.28782">
        <ele>39.070679</ele>
        <time>2009-05-31T15:49:45Z</time>
      </trkpt>
      <trkpt lat="43.72312" lon="7.28775">
        <ele>38.590088</ele>
        <time>2009-05-31T15:50:22Z</time>
      </trkpt>
      <trkpt lat="43.72305" lon="7.28756">
        <ele>38.109375</ele>
        <time>2009-05-31T15:50:39Z</time>
      </trkpt>
      <trkpt lat="43.72181" lon="7.28697">
        <ele>37.148071</ele>
        <time>2009-05-31T15:51:28Z</time>
      </trkpt>
      <trkpt lat="43.72118" lon="7.28639">
        <ele>36.186768</ele>
        <time>2009-05-31T15:51:56Z</time>
      </trkpt>
      <trkpt lat="43.71826" lon="7.28246">
        <ele>32.341553</ele>
        <time>2009-05-31T15:53:30Z</time>
      </trkpt>
      <trkpt lat="43.71686" lon="7.28153">
        <ele>30.418823</ele>
        <time>2009-05-31T15:54:35Z</time>
      </trkpt>
      <trkpt lat="43.71625" lon="7.2814">
        <ele>29.93811</ele>
        <time>2009-05-31T15:54:52Z</time>
      </trkpt>
      <trkpt lat="43.71518" lon="7.28156">
        <ele>30.418823</ele>
        <time>2009-05-31T15:55:14Z</time>
      </trkpt>
      <trkpt lat="43.71425" lon="7.28217">
        <ele>29.45752</ele>
        <time>2009-05-31T15:55:35Z</time>
      </trkpt>
      <trkpt lat="43.71436" lon="7.28309">
        <ele>30.418823</ele>
        <time>2009-05-31T15:55:49Z</time>
      </trkpt>
      <trkpt lat="43.71164" lon="7.28416">
        <ele>26.573608</ele>
        <time>2009-05-31T15:56:41Z</time>
      </trkpt>
      <trkpt lat="43.70981" lon="7.28402">
        <ele>20.805664</ele>
        <time>2009-05-31T15:57:06Z</time>
      </trkpt>
      <trkpt lat="43.69599" lon="7.26905">
        <ele>12.634399</ele>
        <time>2009-05-31T16:02:06Z</time>
      </trkpt>
      <trkpt lat="43.69536" lon="7.26912">
        <ele>12.153809</ele>
        <time>2009-05-31T16:02:15Z</time>
      </trkpt>
      <trkpt lat="43.69515" lon="7.26897">
        <ele>12.153809</ele>
        <time>2009-05-31T16:02:19Z</time>
      </trkpt>
      <trkpt lat="43.6951" lon="7.26795">
        <ele>12.153809</ele>
        <time>2009-05-31T16:02:30Z</time>
      </trkpt>
      <trkpt lat="43.6952" lon="7.26781">
        <ele>12.153809</ele>
        <time>2009-05-31T16:02:33Z</time>
      </trkpt>
      <trkpt lat="43.69538" lon="7.2679">
        <ele>11.673218</ele>
        <time>2009-05-31T16:04:11Z</time>
      </trkpt>
    </trkseg>
  </trk>
</gpx>